<?xml version="1.0" encoding="UTF-8" standalone="no" ?>
<gpx xmlns="http://www.topografix.com/GPX/1/1" xmlns:xsi="http://www.w3.org/2001/XMLSchema-instance" xsi:schemaLocation="http://www.topografix.com/GPX/1/1 http://www.topografix.com/GPX/1/1/gpx.xsd" version="1.1" creator="VisuGPX - https://www.visugpx.com">
  <metadata>
    <name>veroncle murs joucas</name>
    <desc><![CDATA[départ du parking sur la D2
direction murs pas la combe et ces 7 moulins 
descente par joucas ]]></desc>
  </metadata>
  <trk>
    <name><![CDATA[veroncle murs joucas_1]]></name>
    <trkseg>
      <trkpt lat="43.91071" lon="5.2301">
        <ele>193.2</ele>
        <time>2014-05-18T07:18:51Z</time>
      </trkpt>
      <trkpt lat="43.91071" lon="5.2301">
        <ele>230.847</ele>
        <time>2014-05-18T07:18:55Z</time>
      </trkpt>
      <trkpt lat="43.91089" lon="5.22997">
        <ele>247.434</ele>
        <time>2014-05-18T07:19:37Z</time>
      </trkpt>
      <trkpt lat="43.91119" lon="5.2299">
        <ele>245.179</ele>
        <time>2014-05-18T07:20:19Z</time>
      </trkpt>
      <trkpt lat="43.91133" lon="5.22987">
        <ele>244.059</ele>
        <time>2014-05-18T07:20:34Z</time>
      </trkpt>
      <trkpt lat="43.91152" lon="5.22991">
        <ele>243.729</ele>
        <time>2014-05-18T07:20:53Z</time>
      </trkpt>
      <trkpt lat="43.91172" lon="5.22994">
        <ele>244.995</ele>
        <time>2014-05-18T07:21:07Z</time>
      </trkpt>
      <trkpt lat="43.91188" lon="5.22998">
        <ele>245.513</ele>
        <time>2014-05-18T07:21:21Z</time>
      </trkpt>
      <trkpt lat="43.91209" lon="5.22997">
        <ele>245.942</ele>
        <time>2014-05-18T07:21:37Z</time>
      </trkpt>
      <trkpt lat="43.91226" lon="5.22988">
        <ele>246.623</ele>
        <time>2014-05-18T07:21:47Z</time>
      </trkpt>
      <trkpt lat="43.91234" lon="5.22979">
        <ele>247.597</ele>
        <time>2014-05-18T07:21:56Z</time>
      </trkpt>
      <trkpt lat="43.9126" lon="5.22961">
        <ele>247.741</ele>
        <time>2014-05-18T07:22:16Z</time>
      </trkpt>
      <trkpt lat="43.91279" lon="5.22957">
        <ele>248.157</ele>
        <time>2014-05-18T07:22:30Z</time>
      </trkpt>
      <trkpt lat="43.91294" lon="5.22957">
        <ele>248.442</ele>
        <time>2014-05-18T07:22:44Z</time>
      </trkpt>
      <trkpt lat="43.91307" lon="5.22952">
        <ele>248.271</ele>
        <time>2014-05-18T07:22:54Z</time>
      </trkpt>
      <trkpt lat="43.91332" lon="5.22941">
        <ele>248.899</ele>
        <time>2014-05-18T07:23:09Z</time>
      </trkpt>
      <trkpt lat="43.91348" lon="5.22931">
        <ele>250.184</ele>
        <time>2014-05-18T07:23:23Z</time>
      </trkpt>
      <trkpt lat="43.91368" lon="5.22913">
        <ele>251.107</ele>
        <time>2014-05-18T07:23:38Z</time>
      </trkpt>
      <trkpt lat="43.91377" lon="5.22905">
        <ele>251.564</ele>
        <time>2014-05-18T07:23:47Z</time>
      </trkpt>
      <trkpt lat="43.91396" lon="5.2289">
        <ele>252.28</ele>
        <time>2014-05-18T07:24:03Z</time>
      </trkpt>
      <trkpt lat="43.91411" lon="5.22879">
        <ele>252.665</ele>
        <time>2014-05-18T07:24:15Z</time>
      </trkpt>
      <trkpt lat="43.91424" lon="5.22867">
        <ele>252.911</ele>
        <time>2014-05-18T07:24:26Z</time>
      </trkpt>
      <trkpt lat="43.91442" lon="5.22857">
        <ele>253.005</ele>
        <time>2014-05-18T07:24:44Z</time>
      </trkpt>
      <trkpt lat="43.91466" lon="5.22856">
        <ele>253.17</ele>
        <time>2014-05-18T07:25:03Z</time>
      </trkpt>
      <trkpt lat="43.91492" lon="5.22853">
        <ele>253.631</ele>
        <time>2014-05-18T07:25:21Z</time>
      </trkpt>
      <trkpt lat="43.91503" lon="5.22857">
        <ele>253.966</ele>
        <time>2014-05-18T07:25:28Z</time>
      </trkpt>
      <trkpt lat="43.91517" lon="5.22855">
        <ele>253.766</ele>
        <time>2014-05-18T07:25:41Z</time>
      </trkpt>
      <trkpt lat="43.91532" lon="5.22852">
        <ele>253.487</ele>
        <time>2014-05-18T07:25:48Z</time>
      </trkpt>
      <trkpt lat="43.91549" lon="5.22849">
        <ele>252.888</ele>
        <time>2014-05-18T07:26:01Z</time>
      </trkpt>
      <trkpt lat="43.91574" lon="5.22845">
        <ele>252.737</ele>
        <time>2014-05-18T07:26:18Z</time>
      </trkpt>
      <trkpt lat="43.91579" lon="5.22842">
        <ele>252.671</ele>
        <time>2014-05-18T07:26:22Z</time>
      </trkpt>
      <trkpt lat="43.91587" lon="5.2284">
        <ele>253.338</ele>
        <time>2014-05-18T07:26:36Z</time>
      </trkpt>
      <trkpt lat="43.91587" lon="5.2284">
        <ele>253.338</ele>
        <time>2014-05-18T07:26:43Z</time>
      </trkpt>
      <trkpt lat="43.91587" lon="5.2284">
        <ele>253.338</ele>
        <time>2014-05-18T07:26:45Z</time>
      </trkpt>
      <trkpt lat="43.91604" lon="5.22829">
        <ele>255.552</ele>
        <time>2014-05-18T07:27:34Z</time>
      </trkpt>
      <trkpt lat="43.9161" lon="5.22818">
        <ele>256.098</ele>
        <time>2014-05-18T07:27:45Z</time>
      </trkpt>
      <trkpt lat="43.91628" lon="5.22811">
        <ele>256.108</ele>
        <time>2014-05-18T07:28:03Z</time>
      </trkpt>
      <trkpt lat="43.91643" lon="5.22797">
        <ele>256.457</ele>
        <time>2014-05-18T07:28:18Z</time>
      </trkpt>
      <trkpt lat="43.9166" lon="5.22791">
        <ele>257.692</ele>
        <time>2014-05-18T07:28:32Z</time>
      </trkpt>
      <trkpt lat="43.91671" lon="5.22783">
        <ele>259.314</ele>
        <time>2014-05-18T07:28:47Z</time>
      </trkpt>
      <trkpt lat="43.91683" lon="5.22773">
        <ele>261.102</ele>
        <time>2014-05-18T07:29:01Z</time>
      </trkpt>
      <trkpt lat="43.91696" lon="5.22759">
        <ele>263.327</ele>
        <time>2014-05-18T07:29:18Z</time>
      </trkpt>
      <trkpt lat="43.91698" lon="5.22758">
        <ele>263.474</ele>
        <time>2014-05-18T07:29:20Z</time>
      </trkpt>
      <trkpt lat="43.91704" lon="5.2276">
        <ele>264.019</ele>
        <time>2014-05-18T07:29:32Z</time>
      </trkpt>
      <trkpt lat="43.91718" lon="5.22752">
        <ele>267</ele>
        <time>2014-05-18T07:29:47Z</time>
      </trkpt>
      <trkpt lat="43.91733" lon="5.22745">
        <ele>269.828</ele>
        <time>2014-05-18T07:30:01Z</time>
      </trkpt>
      <trkpt lat="43.91747" lon="5.22738">
        <ele>271.544</ele>
        <time>2014-05-18T07:30:16Z</time>
      </trkpt>
      <trkpt lat="43.91759" lon="5.22733">
        <ele>273.19</ele>
        <time>2014-05-18T07:30:29Z</time>
      </trkpt>
      <trkpt lat="43.91773" lon="5.22722">
        <ele>275.43</ele>
        <time>2014-05-18T07:30:44Z</time>
      </trkpt>
      <trkpt lat="43.91795" lon="5.22714">
        <ele>279.131</ele>
        <time>2014-05-18T07:31:10Z</time>
      </trkpt>
      <trkpt lat="43.91815" lon="5.22713">
        <ele>281.398</ele>
        <time>2014-05-18T07:31:28Z</time>
      </trkpt>
      <trkpt lat="43.91826" lon="5.22711">
        <ele>283.035</ele>
        <time>2014-05-18T07:31:39Z</time>
      </trkpt>
      <trkpt lat="43.91833" lon="5.22707">
        <ele>284.529</ele>
        <time>2014-05-18T07:31:48Z</time>
      </trkpt>
      <trkpt lat="43.91854" lon="5.22696">
        <ele>287.205</ele>
        <time>2014-05-18T07:32:10Z</time>
      </trkpt>
      <trkpt lat="43.91872" lon="5.22688">
        <ele>289.162</ele>
        <time>2014-05-18T07:32:24Z</time>
      </trkpt>
      <trkpt lat="43.91889" lon="5.22693">
        <ele>291.373</ele>
        <time>2014-05-18T07:32:43Z</time>
      </trkpt>
      <trkpt lat="43.91904" lon="5.22695">
        <ele>291.334</ele>
        <time>2014-05-18T07:32:58Z</time>
      </trkpt>
      <trkpt lat="43.91919" lon="5.22705">
        <ele>291.385</ele>
        <time>2014-05-18T07:33:15Z</time>
      </trkpt>
      <trkpt lat="43.91924" lon="5.22708">
        <ele>291.661</ele>
        <time>2014-05-18T07:33:20Z</time>
      </trkpt>
      <trkpt lat="43.91926" lon="5.22711">
        <ele>291.164</ele>
        <time>2014-05-18T07:33:30Z</time>
      </trkpt>
      <trkpt lat="43.91899" lon="5.22718">
        <ele>288.391</ele>
        <time>2014-05-18T07:34:03Z</time>
      </trkpt>
      <trkpt lat="43.91887" lon="5.22728">
        <ele>286.962</ele>
        <time>2014-05-18T07:34:17Z</time>
      </trkpt>
      <trkpt lat="43.91877" lon="5.22732">
        <ele>284.906</ele>
        <time>2014-05-18T07:34:31Z</time>
      </trkpt>
      <trkpt lat="43.91872" lon="5.22735">
        <ele>283.985</ele>
        <time>2014-05-18T07:34:36Z</time>
      </trkpt>
      <trkpt lat="43.91873" lon="5.22736">
        <ele>282.567</ele>
        <time>2014-05-18T07:34:44Z</time>
      </trkpt>
      <trkpt lat="43.91891" lon="5.22748">
        <ele>280.753</ele>
        <time>2014-05-18T07:35:02Z</time>
      </trkpt>
      <trkpt lat="43.919" lon="5.22749">
        <ele>279.36</ele>
        <time>2014-05-18T07:35:14Z</time>
      </trkpt>
      <trkpt lat="43.91901" lon="5.22751">
        <ele>278.106</ele>
        <time>2014-05-18T07:35:24Z</time>
      </trkpt>
      <trkpt lat="43.91917" lon="5.22767">
        <ele>275.304</ele>
        <time>2014-05-18T07:36:37Z</time>
      </trkpt>
      <trkpt lat="43.91917" lon="5.22767">
        <ele>275.304</ele>
        <time>2014-05-18T07:36:45Z</time>
      </trkpt>
      <trkpt lat="43.91917" lon="5.22767">
        <ele>275.304</ele>
        <time>2014-05-18T07:36:46Z</time>
      </trkpt>
      <trkpt lat="43.91937" lon="5.22741">
        <ele>278.417</ele>
        <time>2014-05-18T07:39:45Z</time>
      </trkpt>
      <trkpt lat="43.91951" lon="5.22735">
        <ele>279.433</ele>
        <time>2014-05-18T07:40:05Z</time>
      </trkpt>
      <trkpt lat="43.91979" lon="5.22719">
        <ele>280.84</ele>
        <time>2014-05-18T07:40:59Z</time>
      </trkpt>
      <trkpt lat="43.91979" lon="5.22719">
        <ele>280.84</ele>
        <time>2014-05-18T07:41:05Z</time>
      </trkpt>
      <trkpt lat="43.91983" lon="5.22718">
        <ele>280.597</ele>
        <time>2014-05-18T07:41:07Z</time>
      </trkpt>
      <trkpt lat="43.91992" lon="5.22697">
        <ele>281.758</ele>
        <time>2014-05-18T07:42:57Z</time>
      </trkpt>
      <trkpt lat="43.92006" lon="5.22695">
        <ele>280.808</ele>
        <time>2014-05-18T07:43:10Z</time>
      </trkpt>
      <trkpt lat="43.9201" lon="5.22696">
        <ele>280.666</ele>
        <time>2014-05-18T07:43:15Z</time>
      </trkpt>
      <trkpt lat="43.92015" lon="5.22695">
        <ele>280.904</ele>
        <time>2014-05-18T07:43:24Z</time>
      </trkpt>
      <trkpt lat="43.92041" lon="5.22671">
        <ele>286.087</ele>
        <time>2014-05-18T07:44:12Z</time>
      </trkpt>
      <trkpt lat="43.92048" lon="5.22657">
        <ele>286.65</ele>
        <time>2014-05-18T07:44:22Z</time>
      </trkpt>
      <trkpt lat="43.92058" lon="5.22653">
        <ele>285.226</ele>
        <time>2014-05-18T07:44:33Z</time>
      </trkpt>
      <trkpt lat="43.92058" lon="5.22653">
        <ele>285.226</ele>
        <time>2014-05-18T07:44:38Z</time>
      </trkpt>
      <trkpt lat="43.92058" lon="5.22653">
        <ele>285.226</ele>
        <time>2014-05-18T07:44:39Z</time>
      </trkpt>
      <trkpt lat="43.92053" lon="5.22676">
        <ele>283.421</ele>
        <time>2014-05-18T07:46:02Z</time>
      </trkpt>
      <trkpt lat="43.92053" lon="5.22676">
        <ele>283.421</ele>
        <time>2014-05-18T07:46:07Z</time>
      </trkpt>
      <trkpt lat="43.92053" lon="5.22676">
        <ele>283.421</ele>
        <time>2014-05-18T07:46:08Z</time>
      </trkpt>
      <trkpt lat="43.92079" lon="5.2268">
        <ele>288.425</ele>
        <time>2014-05-18T07:47:26Z</time>
      </trkpt>
      <trkpt lat="43.92079" lon="5.2268">
        <ele>288.425</ele>
        <time>2014-05-18T07:47:34Z</time>
      </trkpt>
      <trkpt lat="43.92083" lon="5.22682">
        <ele>288.298</ele>
        <time>2014-05-18T07:47:36Z</time>
      </trkpt>
      <trkpt lat="43.92067" lon="5.22663">
        <ele>288.74</ele>
        <time>2014-05-18T07:47:58Z</time>
      </trkpt>
      <trkpt lat="43.92067" lon="5.22663">
        <ele>288.74</ele>
        <time>2014-05-18T07:48:04Z</time>
      </trkpt>
      <trkpt lat="43.92067" lon="5.22663">
        <ele>288.74</ele>
        <time>2014-05-18T07:48:07Z</time>
      </trkpt>
      <trkpt lat="43.92048" lon="5.22662">
        <ele>289.261</ele>
        <time>2014-05-18T07:48:15Z</time>
      </trkpt>
      <trkpt lat="43.92048" lon="5.22662">
        <ele>289.261</ele>
        <time>2014-05-18T07:48:21Z</time>
      </trkpt>
      <trkpt lat="43.92048" lon="5.22662">
        <ele>289.261</ele>
        <time>2014-05-18T07:48:22Z</time>
      </trkpt>
      <trkpt lat="43.92064" lon="5.22655">
        <ele>290.266</ele>
        <time>2014-05-18T07:48:35Z</time>
      </trkpt>
      <trkpt lat="43.92074" lon="5.2266">
        <ele>289.472</ele>
        <time>2014-05-18T07:48:42Z</time>
      </trkpt>
      <trkpt lat="43.92073" lon="5.22658">
        <ele>289.088</ele>
        <time>2014-05-18T07:48:54Z</time>
      </trkpt>
      <trkpt lat="43.92079" lon="5.22639">
        <ele>287.66</ele>
        <time>2014-05-18T07:49:27Z</time>
      </trkpt>
      <trkpt lat="43.92093" lon="5.22623">
        <ele>287.117</ele>
        <time>2014-05-18T07:49:41Z</time>
      </trkpt>
      <trkpt lat="43.92113" lon="5.22617">
        <ele>285.408</ele>
        <time>2014-05-18T07:49:58Z</time>
      </trkpt>
      <trkpt lat="43.92131" lon="5.22609">
        <ele>283.256</ele>
        <time>2014-05-18T07:50:19Z</time>
      </trkpt>
      <trkpt lat="43.92147" lon="5.22606">
        <ele>283</ele>
        <time>2014-05-18T07:50:34Z</time>
      </trkpt>
      <trkpt lat="43.92151" lon="5.22605">
        <ele>282.917</ele>
        <time>2014-05-18T07:50:37Z</time>
      </trkpt>
      <trkpt lat="43.92159" lon="5.22602">
        <ele>285.47</ele>
        <time>2014-05-18T07:50:53Z</time>
      </trkpt>
      <trkpt lat="43.92176" lon="5.22588">
        <ele>287.601</ele>
        <time>2014-05-18T07:51:15Z</time>
      </trkpt>
      <trkpt lat="43.92189" lon="5.22599">
        <ele>286.662</ele>
        <time>2014-05-18T07:51:33Z</time>
      </trkpt>
      <trkpt lat="43.92202" lon="5.22585">
        <ele>286.385</ele>
        <time>2014-05-18T07:51:46Z</time>
      </trkpt>
      <trkpt lat="43.92209" lon="5.22588">
        <ele>287.001</ele>
        <time>2014-05-18T07:51:52Z</time>
      </trkpt>
      <trkpt lat="43.92219" lon="5.22585">
        <ele>289.285</ele>
        <time>2014-05-18T07:52:03Z</time>
      </trkpt>
      <trkpt lat="43.92219" lon="5.22585">
        <ele>289.285</ele>
        <time>2014-05-18T07:52:11Z</time>
      </trkpt>
      <trkpt lat="43.92219" lon="5.22585">
        <ele>289.285</ele>
        <time>2014-05-18T07:52:13Z</time>
      </trkpt>
      <trkpt lat="43.92218" lon="5.22564">
        <ele>290.699</ele>
        <time>2014-05-18T07:52:29Z</time>
      </trkpt>
      <trkpt lat="43.92221" lon="5.22547">
        <ele>290.536</ele>
        <time>2014-05-18T07:52:44Z</time>
      </trkpt>
      <trkpt lat="43.9222" lon="5.22544">
        <ele>290.513</ele>
        <time>2014-05-18T07:52:45Z</time>
      </trkpt>
      <trkpt lat="43.92226" lon="5.2254">
        <ele>290.638</ele>
        <time>2014-05-18T07:52:54Z</time>
      </trkpt>
      <trkpt lat="43.92249" lon="5.22523">
        <ele>293.663</ele>
        <time>2014-05-18T07:53:39Z</time>
      </trkpt>
      <trkpt lat="43.92249" lon="5.22523">
        <ele>293.663</ele>
        <time>2014-05-18T07:53:46Z</time>
      </trkpt>
      <trkpt lat="43.92259" lon="5.22516">
        <ele>292.583</ele>
        <time>2014-05-18T07:53:51Z</time>
      </trkpt>
      <trkpt lat="43.92273" lon="5.22514">
        <ele>291.74</ele>
        <time>2014-05-18T07:54:02Z</time>
      </trkpt>
      <trkpt lat="43.92279" lon="5.22525">
        <ele>293.204</ele>
        <time>2014-05-18T07:54:13Z</time>
      </trkpt>
      <trkpt lat="43.92296" lon="5.22545">
        <ele>295.673</ele>
        <time>2014-05-18T07:54:29Z</time>
      </trkpt>
      <trkpt lat="43.92296" lon="5.22545">
        <ele>295.673</ele>
        <time>2014-05-18T07:54:37Z</time>
      </trkpt>
      <trkpt lat="43.92296" lon="5.22545">
        <ele>295.673</ele>
        <time>2014-05-18T07:54:38Z</time>
      </trkpt>
      <trkpt lat="43.92309" lon="5.22557">
        <ele>297.538</ele>
        <time>2014-05-18T07:54:53Z</time>
      </trkpt>
      <trkpt lat="43.92319" lon="5.22552">
        <ele>299.088</ele>
        <time>2014-05-18T07:55:04Z</time>
      </trkpt>
      <trkpt lat="43.9235" lon="5.22461">
        <ele>309.346</ele>
        <time>2014-05-18T07:55:32Z</time>
      </trkpt>
      <trkpt lat="43.9235" lon="5.22569">
        <ele>312.242</ele>
        <time>2014-05-18T07:55:40Z</time>
      </trkpt>
      <trkpt lat="43.9235" lon="5.22569">
        <ele>312.242</ele>
        <time>2014-05-18T07:55:46Z</time>
      </trkpt>
      <trkpt lat="43.9235" lon="5.22569">
        <ele>312.242</ele>
        <time>2014-05-18T07:55:47Z</time>
      </trkpt>
      <trkpt lat="43.92376" lon="5.22545">
        <ele>314.557</ele>
        <time>2014-05-18T07:56:43Z</time>
      </trkpt>
      <trkpt lat="43.9239" lon="5.22509">
        <ele>312.614</ele>
        <time>2014-05-18T07:57:28Z</time>
      </trkpt>
      <trkpt lat="43.92408" lon="5.22476">
        <ele>312.157</ele>
        <time>2014-05-18T07:58:08Z</time>
      </trkpt>
      <trkpt lat="43.92414" lon="5.22448">
        <ele>313.46</ele>
        <time>2014-05-18T07:58:28Z</time>
      </trkpt>
      <trkpt lat="43.92413" lon="5.22421">
        <ele>316.218</ele>
        <time>2014-05-18T07:58:40Z</time>
      </trkpt>
      <trkpt lat="43.92413" lon="5.22421">
        <ele>316.218</ele>
        <time>2014-05-18T07:58:48Z</time>
      </trkpt>
      <trkpt lat="43.92413" lon="5.22421">
        <ele>316.218</ele>
        <time>2014-05-18T07:58:50Z</time>
      </trkpt>
      <trkpt lat="43.92406" lon="5.22407">
        <ele>317.708</ele>
        <time>2014-05-18T07:59:02Z</time>
      </trkpt>
      <trkpt lat="43.92398" lon="5.22399">
        <ele>318.316</ele>
        <time>2014-05-18T07:59:12Z</time>
      </trkpt>
      <trkpt lat="43.92398" lon="5.22396">
        <ele>319.095</ele>
        <time>2014-05-18T07:59:21Z</time>
      </trkpt>
      <trkpt lat="43.92406" lon="5.2238">
        <ele>324.543</ele>
        <time>2014-05-18T08:00:19Z</time>
      </trkpt>
      <trkpt lat="43.92409" lon="5.22348">
        <ele>325.332</ele>
        <time>2014-05-18T08:00:37Z</time>
      </trkpt>
      <trkpt lat="43.92409" lon="5.22348">
        <ele>325.332</ele>
        <time>2014-05-18T08:00:45Z</time>
      </trkpt>
      <trkpt lat="43.92409" lon="5.22348">
        <ele>325.332</ele>
        <time>2014-05-18T08:00:46Z</time>
      </trkpt>
      <trkpt lat="43.92409" lon="5.22307">
        <ele>328.98</ele>
        <time>2014-05-18T08:01:38Z</time>
      </trkpt>
      <trkpt lat="43.92424" lon="5.22265">
        <ele>328.965</ele>
        <time>2014-05-18T08:02:29Z</time>
      </trkpt>
      <trkpt lat="43.92436" lon="5.22246">
        <ele>328.153</ele>
        <time>2014-05-18T08:02:35Z</time>
      </trkpt>
      <trkpt lat="43.92433" lon="5.22267">
        <ele>327.449</ele>
        <time>2014-05-18T08:02:40Z</time>
      </trkpt>
      <trkpt lat="43.92434" lon="5.22266">
        <ele>327.076</ele>
        <time>2014-05-18T08:02:46Z</time>
      </trkpt>
      <trkpt lat="43.92442" lon="5.22232">
        <ele>334.982</ele>
        <time>2014-05-18T08:03:59Z</time>
      </trkpt>
      <trkpt lat="43.92468" lon="5.22218">
        <ele>337.285</ele>
        <time>2014-05-18T08:04:54Z</time>
      </trkpt>
      <trkpt lat="43.92468" lon="5.22218">
        <ele>337.285</ele>
        <time>2014-05-18T08:05:01Z</time>
      </trkpt>
      <trkpt lat="43.92468" lon="5.22218">
        <ele>337.285</ele>
        <time>2014-05-18T08:05:03Z</time>
      </trkpt>
      <trkpt lat="43.92496" lon="5.22204">
        <ele>345.357</ele>
        <time>2014-05-18T08:06:29Z</time>
      </trkpt>
      <trkpt lat="43.92508" lon="5.22201">
        <ele>347.678</ele>
        <time>2014-05-18T08:06:42Z</time>
      </trkpt>
      <trkpt lat="43.92529" lon="5.22203">
        <ele>354.255</ele>
        <time>2014-05-18T08:07:06Z</time>
      </trkpt>
      <trkpt lat="43.92559" lon="5.22216">
        <ele>355.32</ele>
        <time>2014-05-18T08:08:14Z</time>
      </trkpt>
      <trkpt lat="43.92569" lon="5.22221">
        <ele>354.715</ele>
        <time>2014-05-18T08:08:23Z</time>
      </trkpt>
      <trkpt lat="43.92578" lon="5.22225">
        <ele>355.969</ele>
        <time>2014-05-18T08:08:37Z</time>
      </trkpt>
      <trkpt lat="43.92593" lon="5.22225">
        <ele>356.735</ele>
        <time>2014-05-18T08:08:55Z</time>
      </trkpt>
      <trkpt lat="43.92612" lon="5.22229">
        <ele>356.863</ele>
        <time>2014-05-18T08:09:17Z</time>
      </trkpt>
      <trkpt lat="43.9263" lon="5.22223">
        <ele>356.072</ele>
        <time>2014-05-18T08:09:35Z</time>
      </trkpt>
      <trkpt lat="43.92635" lon="5.22221">
        <ele>356.714</ele>
        <time>2014-05-18T08:09:40Z</time>
      </trkpt>
      <trkpt lat="43.92634" lon="5.22217">
        <ele>357.093</ele>
        <time>2014-05-18T08:09:49Z</time>
      </trkpt>
      <trkpt lat="43.92661" lon="5.22193">
        <ele>365.622</ele>
        <time>2014-05-18T08:10:45Z</time>
      </trkpt>
      <trkpt lat="43.92676" lon="5.2216">
        <ele>368.292</ele>
        <time>2014-05-18T08:12:01Z</time>
      </trkpt>
      <trkpt lat="43.92691" lon="5.22149">
        <ele>368.981</ele>
        <time>2014-05-18T08:12:17Z</time>
      </trkpt>
      <trkpt lat="43.92714" lon="5.22137">
        <ele>368.982</ele>
        <time>2014-05-18T08:13:09Z</time>
      </trkpt>
      <trkpt lat="43.92719" lon="5.22138">
        <ele>367.643</ele>
        <time>2014-05-18T08:13:16Z</time>
      </trkpt>
      <trkpt lat="43.92729" lon="5.22138">
        <ele>368.163</ele>
        <time>2014-05-18T08:13:32Z</time>
      </trkpt>
      <trkpt lat="43.92729" lon="5.22138">
        <ele>368.163</ele>
        <time>2014-05-18T08:16:15Z</time>
      </trkpt>
      <trkpt lat="43.92725" lon="5.22161">
        <ele>363.336</ele>
        <time>2014-05-18T08:17:23Z</time>
      </trkpt>
      <trkpt lat="43.92697" lon="5.22165">
        <ele>357.455</ele>
        <time>2014-05-18T08:18:40Z</time>
      </trkpt>
      <trkpt lat="43.92697" lon="5.22165">
        <ele>357.455</ele>
        <time>2014-05-18T08:20:50Z</time>
      </trkpt>
      <trkpt lat="43.92723" lon="5.22192">
        <ele>363.523</ele>
        <time>2014-05-18T08:21:21Z</time>
      </trkpt>
      <trkpt lat="43.92723" lon="5.22192">
        <ele>363.523</ele>
        <time>2014-05-18T08:21:29Z</time>
      </trkpt>
      <trkpt lat="43.92723" lon="5.22192">
        <ele>363.523</ele>
        <time>2014-05-18T08:21:31Z</time>
      </trkpt>
      <trkpt lat="43.92728" lon="5.22215">
        <ele>358.773</ele>
        <time>2014-05-18T08:22:07Z</time>
      </trkpt>
      <trkpt lat="43.92728" lon="5.22215">
        <ele>358.773</ele>
        <time>2014-05-18T08:22:14Z</time>
      </trkpt>
      <trkpt lat="43.92728" lon="5.22215">
        <ele>358.773</ele>
        <time>2014-05-18T08:22:15Z</time>
      </trkpt>
      <trkpt lat="43.92733" lon="5.22234">
        <ele>357.688</ele>
        <time>2014-05-18T08:22:27Z</time>
      </trkpt>
      <trkpt lat="43.92765" lon="5.2225">
        <ele>358.669</ele>
        <time>2014-05-18T08:23:11Z</time>
      </trkpt>
      <trkpt lat="43.9278" lon="5.22251">
        <ele>359.821</ele>
        <time>2014-05-18T08:23:25Z</time>
      </trkpt>
      <trkpt lat="43.9279" lon="5.22253">
        <ele>360.589</ele>
        <time>2014-05-18T08:23:35Z</time>
      </trkpt>
      <trkpt lat="43.92809" lon="5.22256">
        <ele>361.47</ele>
        <time>2014-05-18T08:23:53Z</time>
      </trkpt>
      <trkpt lat="43.92817" lon="5.22247">
        <ele>361.353</ele>
        <time>2014-05-18T08:24:00Z</time>
      </trkpt>
      <trkpt lat="43.92828" lon="5.22252">
        <ele>360.53</ele>
        <time>2014-05-18T08:24:14Z</time>
      </trkpt>
      <trkpt lat="43.92841" lon="5.22262">
        <ele>360.959</ele>
        <time>2014-05-18T08:24:33Z</time>
      </trkpt>
      <trkpt lat="43.92854" lon="5.22267">
        <ele>363.268</ele>
        <time>2014-05-18T08:24:48Z</time>
      </trkpt>
      <trkpt lat="43.92854" lon="5.22267">
        <ele>363.268</ele>
        <time>2014-05-18T08:24:56Z</time>
      </trkpt>
      <trkpt lat="43.92864" lon="5.22264">
        <ele>366.384</ele>
        <time>2014-05-18T08:25:07Z</time>
      </trkpt>
      <trkpt lat="43.92869" lon="5.22244">
        <ele>367.976</ele>
        <time>2014-05-18T08:25:21Z</time>
      </trkpt>
      <trkpt lat="43.92889" lon="5.22225">
        <ele>368.469</ele>
        <time>2014-05-18T08:25:41Z</time>
      </trkpt>
      <trkpt lat="43.92901" lon="5.2222">
        <ele>369.032</ele>
        <time>2014-05-18T08:25:52Z</time>
      </trkpt>
      <trkpt lat="43.92901" lon="5.2222">
        <ele>369.032</ele>
        <time>2014-05-18T08:25:59Z</time>
      </trkpt>
      <trkpt lat="43.92908" lon="5.22208">
        <ele>369.756</ele>
        <time>2014-05-18T08:26:08Z</time>
      </trkpt>
      <trkpt lat="43.92914" lon="5.2219">
        <ele>367.836</ele>
        <time>2014-05-18T08:26:30Z</time>
      </trkpt>
      <trkpt lat="43.92929" lon="5.22194">
        <ele>368.253</ele>
        <time>2014-05-18T08:26:46Z</time>
      </trkpt>
      <trkpt lat="43.92943" lon="5.22197">
        <ele>371.148</ele>
        <time>2014-05-18T08:27:06Z</time>
      </trkpt>
      <trkpt lat="43.92957" lon="5.22206">
        <ele>372.954</ele>
        <time>2014-05-18T08:27:19Z</time>
      </trkpt>
      <trkpt lat="43.92957" lon="5.22206">
        <ele>372.954</ele>
        <time>2014-05-18T08:27:25Z</time>
      </trkpt>
      <trkpt lat="43.92957" lon="5.22206">
        <ele>372.954</ele>
        <time>2014-05-18T08:27:26Z</time>
      </trkpt>
      <trkpt lat="43.92982" lon="5.22223">
        <ele>374.382</ele>
        <time>2014-05-18T08:28:15Z</time>
      </trkpt>
      <trkpt lat="43.92993" lon="5.22244">
        <ele>374.743</ele>
        <time>2014-05-18T08:28:31Z</time>
      </trkpt>
      <trkpt lat="43.93001" lon="5.22256">
        <ele>374.421</ele>
        <time>2014-05-18T08:28:50Z</time>
      </trkpt>
      <trkpt lat="43.9303" lon="5.22259">
        <ele>373.75</ele>
        <time>2014-05-18T08:29:44Z</time>
      </trkpt>
      <trkpt lat="43.93041" lon="5.22261">
        <ele>373.573</ele>
        <time>2014-05-18T08:29:55Z</time>
      </trkpt>
      <trkpt lat="43.93064" lon="5.22265">
        <ele>377.059</ele>
        <time>2014-05-18T08:30:11Z</time>
      </trkpt>
      <trkpt lat="43.93072" lon="5.22268">
        <ele>380.292</ele>
        <time>2014-05-18T08:30:25Z</time>
      </trkpt>
      <trkpt lat="43.93087" lon="5.22266">
        <ele>382.06</ele>
        <time>2014-05-18T08:30:39Z</time>
      </trkpt>
      <trkpt lat="43.93106" lon="5.22257">
        <ele>382.413</ele>
        <time>2014-05-18T08:30:55Z</time>
      </trkpt>
      <trkpt lat="43.93113" lon="5.2224">
        <ele>381.271</ele>
        <time>2014-05-18T08:31:07Z</time>
      </trkpt>
      <trkpt lat="43.93105" lon="5.22217">
        <ele>381.444</ele>
        <time>2014-05-18T08:31:20Z</time>
      </trkpt>
      <trkpt lat="43.93102" lon="5.22204">
        <ele>381.621</ele>
        <time>2014-05-18T08:31:27Z</time>
      </trkpt>
      <trkpt lat="43.93097" lon="5.22193">
        <ele>381.695</ele>
        <time>2014-05-18T08:31:42Z</time>
      </trkpt>
      <trkpt lat="43.93097" lon="5.22173">
        <ele>383.354</ele>
        <time>2014-05-18T08:31:59Z</time>
      </trkpt>
      <trkpt lat="43.93095" lon="5.2215">
        <ele>384.678</ele>
        <time>2014-05-18T08:32:18Z</time>
      </trkpt>
      <trkpt lat="43.93098" lon="5.22131">
        <ele>386.206</ele>
        <time>2014-05-18T08:32:34Z</time>
      </trkpt>
      <trkpt lat="43.93102" lon="5.22106">
        <ele>389.576</ele>
        <time>2014-05-18T08:32:50Z</time>
      </trkpt>
      <trkpt lat="43.93108" lon="5.22087">
        <ele>392.214</ele>
        <time>2014-05-18T08:33:07Z</time>
      </trkpt>
      <trkpt lat="43.93108" lon="5.22087">
        <ele>392.214</ele>
        <time>2014-05-18T08:33:15Z</time>
      </trkpt>
      <trkpt lat="43.9311" lon="5.22067">
        <ele>397.95</ele>
        <time>2014-05-18T08:33:28Z</time>
      </trkpt>
      <trkpt lat="43.93138" lon="5.22057">
        <ele>401.574</ele>
        <time>2014-05-18T08:34:52Z</time>
      </trkpt>
      <trkpt lat="43.93151" lon="5.22067">
        <ele>401.103</ele>
        <time>2014-05-18T08:35:04Z</time>
      </trkpt>
      <trkpt lat="43.93164" lon="5.22078">
        <ele>400.742</ele>
        <time>2014-05-18T08:35:17Z</time>
      </trkpt>
      <trkpt lat="43.93164" lon="5.22078">
        <ele>400.742</ele>
        <time>2014-05-18T08:35:22Z</time>
      </trkpt>
      <trkpt lat="43.93164" lon="5.22078">
        <ele>400.742</ele>
        <time>2014-05-18T08:35:23Z</time>
      </trkpt>
      <trkpt lat="43.93178" lon="5.22117">
        <ele>400.722</ele>
        <time>2014-05-18T08:36:58Z</time>
      </trkpt>
      <trkpt lat="43.93177" lon="5.2213">
        <ele>403.324</ele>
        <time>2014-05-18T08:37:16Z</time>
      </trkpt>
      <trkpt lat="43.93201" lon="5.22149">
        <ele>402.784</ele>
        <time>2014-05-18T08:38:35Z</time>
      </trkpt>
      <trkpt lat="43.93201" lon="5.22149">
        <ele>402.784</ele>
        <time>2014-05-18T08:41:36Z</time>
      </trkpt>
      <trkpt lat="43.93225" lon="5.22131">
        <ele>407.611</ele>
        <time>2014-05-18T08:42:19Z</time>
      </trkpt>
      <trkpt lat="43.93225" lon="5.22131">
        <ele>407.611</ele>
        <time>2014-05-18T08:42:27Z</time>
      </trkpt>
      <trkpt lat="43.93251" lon="5.22106">
        <ele>408.354</ele>
        <time>2014-05-18T08:43:07Z</time>
      </trkpt>
      <trkpt lat="43.93255" lon="5.22094">
        <ele>409.75</ele>
        <time>2014-05-18T08:43:22Z</time>
      </trkpt>
      <trkpt lat="43.93271" lon="5.22101">
        <ele>411.411</ele>
        <time>2014-05-18T08:43:38Z</time>
      </trkpt>
      <trkpt lat="43.93284" lon="5.22106">
        <ele>412.069</ele>
        <time>2014-05-18T08:43:49Z</time>
      </trkpt>
      <trkpt lat="43.93286" lon="5.22102">
        <ele>412.561</ele>
        <time>2014-05-18T08:43:57Z</time>
      </trkpt>
      <trkpt lat="43.93298" lon="5.22101">
        <ele>413.021</ele>
        <time>2014-05-18T08:44:10Z</time>
      </trkpt>
      <trkpt lat="43.93298" lon="5.22101">
        <ele>413.021</ele>
        <time>2014-05-18T08:44:18Z</time>
      </trkpt>
      <trkpt lat="43.93298" lon="5.22101">
        <ele>413.021</ele>
        <time>2014-05-18T08:44:19Z</time>
      </trkpt>
      <trkpt lat="43.9332" lon="5.22113">
        <ele>417.549</ele>
        <time>2014-05-18T08:44:44Z</time>
      </trkpt>
      <trkpt lat="43.9332" lon="5.22113">
        <ele>417.549</ele>
        <time>2014-05-18T08:44:52Z</time>
      </trkpt>
      <trkpt lat="43.9332" lon="5.22113">
        <ele>417.549</ele>
        <time>2014-05-18T08:44:54Z</time>
      </trkpt>
      <trkpt lat="43.93328" lon="5.2213">
        <ele>417.975</ele>
        <time>2014-05-18T08:45:09Z</time>
      </trkpt>
      <trkpt lat="43.93328" lon="5.2213">
        <ele>417.975</ele>
        <time>2014-05-18T08:45:17Z</time>
      </trkpt>
      <trkpt lat="43.93328" lon="5.2213">
        <ele>417.975</ele>
        <time>2014-05-18T08:45:18Z</time>
      </trkpt>
      <trkpt lat="43.93345" lon="5.22159">
        <ele>417.245</ele>
        <time>2014-05-18T08:52:29Z</time>
      </trkpt>
      <trkpt lat="43.9335" lon="5.22165">
        <ele>417.64</ele>
        <time>2014-05-18T08:52:32Z</time>
      </trkpt>
      <trkpt lat="43.9335" lon="5.22161">
        <ele>418.337</ele>
        <time>2014-05-18T08:52:41Z</time>
      </trkpt>
      <trkpt lat="43.93354" lon="5.22116">
        <ele>417.414</ele>
        <time>2014-05-18T08:54:02Z</time>
      </trkpt>
      <trkpt lat="43.93354" lon="5.22116">
        <ele>417.414</ele>
        <time>2014-05-18T08:54:09Z</time>
      </trkpt>
      <trkpt lat="43.93354" lon="5.22116">
        <ele>417.414</ele>
        <time>2014-05-18T08:54:11Z</time>
      </trkpt>
      <trkpt lat="43.93343" lon="5.22137">
        <ele>443.258</ele>
        <time>2014-05-18T08:54:33Z</time>
      </trkpt>
      <trkpt lat="43.93343" lon="5.22137">
        <ele>443.258</ele>
        <time>2014-05-18T08:54:38Z</time>
      </trkpt>
      <trkpt lat="43.93343" lon="5.22137">
        <ele>443.258</ele>
        <time>2014-05-18T08:54:39Z</time>
      </trkpt>
      <trkpt lat="43.93337" lon="5.2217">
        <ele>459.758</ele>
        <time>2014-05-18T08:55:05Z</time>
      </trkpt>
      <trkpt lat="43.9335" lon="5.22176">
        <ele>457.784</ele>
        <time>2014-05-18T08:55:21Z</time>
      </trkpt>
      <trkpt lat="43.93362" lon="5.22182">
        <ele>453.66</ele>
        <time>2014-05-18T08:55:32Z</time>
      </trkpt>
      <trkpt lat="43.93366" lon="5.22187">
        <ele>452.609</ele>
        <time>2014-05-18T08:55:36Z</time>
      </trkpt>
      <trkpt lat="43.9337" lon="5.22187">
        <ele>451.303</ele>
        <time>2014-05-18T08:55:44Z</time>
      </trkpt>
      <trkpt lat="43.93345" lon="5.22168">
        <ele>440.359</ele>
        <time>2014-05-18T08:56:30Z</time>
      </trkpt>
      <trkpt lat="43.93345" lon="5.22168">
        <ele>440.359</ele>
        <time>2014-05-18T08:56:37Z</time>
      </trkpt>
      <trkpt lat="43.93345" lon="5.22168">
        <ele>440.359</ele>
        <time>2014-05-18T08:56:38Z</time>
      </trkpt>
      <trkpt lat="43.93359" lon="5.22159">
        <ele>435.156</ele>
        <time>2014-05-18T08:57:05Z</time>
      </trkpt>
      <trkpt lat="43.93359" lon="5.22159">
        <ele>435.156</ele>
        <time>2014-05-18T08:57:13Z</time>
      </trkpt>
      <trkpt lat="43.93359" lon="5.22159">
        <ele>435.156</ele>
        <time>2014-05-18T08:57:14Z</time>
      </trkpt>
      <trkpt lat="43.93373" lon="5.22155">
        <ele>437.579</ele>
        <time>2014-05-18T08:58:26Z</time>
      </trkpt>
      <trkpt lat="43.93384" lon="5.22152">
        <ele>436.835</ele>
        <time>2014-05-18T08:58:37Z</time>
      </trkpt>
      <trkpt lat="43.93384" lon="5.22152">
        <ele>436.835</ele>
        <time>2014-05-18T08:58:44Z</time>
      </trkpt>
      <trkpt lat="43.93392" lon="5.22149">
        <ele>435.849</ele>
        <time>2014-05-18T08:58:55Z</time>
      </trkpt>
      <trkpt lat="43.9341" lon="5.22143">
        <ele>434.833</ele>
        <time>2014-05-18T08:59:15Z</time>
      </trkpt>
      <trkpt lat="43.93428" lon="5.22134">
        <ele>433.259</ele>
        <time>2014-05-18T08:59:30Z</time>
      </trkpt>
      <trkpt lat="43.93436" lon="5.22133">
        <ele>431.73</ele>
        <time>2014-05-18T08:59:40Z</time>
      </trkpt>
      <trkpt lat="43.93452" lon="5.22126">
        <ele>430.324</ele>
        <time>2014-05-18T09:00:00Z</time>
      </trkpt>
      <trkpt lat="43.93467" lon="5.22122">
        <ele>430.077</ele>
        <time>2014-05-18T09:00:19Z</time>
      </trkpt>
      <trkpt lat="43.93495" lon="5.22124">
        <ele>429.357</ele>
        <time>2014-05-18T09:01:11Z</time>
      </trkpt>
      <trkpt lat="43.93505" lon="5.22123">
        <ele>430.154</ele>
        <time>2014-05-18T09:01:21Z</time>
      </trkpt>
      <trkpt lat="43.93526" lon="5.22118">
        <ele>431.743</ele>
        <time>2014-05-18T09:01:38Z</time>
      </trkpt>
      <trkpt lat="43.93546" lon="5.22108">
        <ele>431.684</ele>
        <time>2014-05-18T09:01:55Z</time>
      </trkpt>
      <trkpt lat="43.93564" lon="5.22102">
        <ele>431.101</ele>
        <time>2014-05-18T09:02:14Z</time>
      </trkpt>
      <trkpt lat="43.93582" lon="5.22097">
        <ele>430.855</ele>
        <time>2014-05-18T09:02:34Z</time>
      </trkpt>
      <trkpt lat="43.93596" lon="5.221">
        <ele>430.019</ele>
        <time>2014-05-18T09:02:47Z</time>
      </trkpt>
      <trkpt lat="43.93619" lon="5.22096">
        <ele>428.353</ele>
        <time>2014-05-18T09:03:08Z</time>
      </trkpt>
      <trkpt lat="43.93632" lon="5.22099">
        <ele>428.672</ele>
        <time>2014-05-18T09:03:20Z</time>
      </trkpt>
      <trkpt lat="43.93645" lon="5.2211">
        <ele>430.613</ele>
        <time>2014-05-18T09:03:34Z</time>
      </trkpt>
      <trkpt lat="43.9366" lon="5.22113">
        <ele>433.809</ele>
        <time>2014-05-18T09:03:54Z</time>
      </trkpt>
      <trkpt lat="43.93694" lon="5.22135">
        <ele>438.324</ele>
        <time>2014-05-18T09:04:47Z</time>
      </trkpt>
      <trkpt lat="43.93714" lon="5.22141">
        <ele>439.865</ele>
        <time>2014-05-18T09:05:07Z</time>
      </trkpt>
      <trkpt lat="43.9373" lon="5.22141">
        <ele>440.271</ele>
        <time>2014-05-18T09:05:19Z</time>
      </trkpt>
      <trkpt lat="43.93735" lon="5.22144">
        <ele>440.348</ele>
        <time>2014-05-18T09:05:23Z</time>
      </trkpt>
      <trkpt lat="43.93738" lon="5.22141">
        <ele>440.198</ele>
        <time>2014-05-18T09:05:33Z</time>
      </trkpt>
      <trkpt lat="43.93758" lon="5.22132">
        <ele>439.178</ele>
        <time>2014-05-18T09:06:32Z</time>
      </trkpt>
      <trkpt lat="43.93758" lon="5.22132">
        <ele>439.178</ele>
        <time>2014-05-18T09:06:38Z</time>
      </trkpt>
      <trkpt lat="43.93758" lon="5.22132">
        <ele>439.178</ele>
        <time>2014-05-18T09:06:39Z</time>
      </trkpt>
      <trkpt lat="43.93772" lon="5.22125">
        <ele>439.204</ele>
        <time>2014-05-18T09:06:46Z</time>
      </trkpt>
      <trkpt lat="43.93783" lon="5.22125">
        <ele>438.622</ele>
        <time>2014-05-18T09:06:56Z</time>
      </trkpt>
      <trkpt lat="43.93806" lon="5.22132">
        <ele>438.269</ele>
        <time>2014-05-18T09:07:15Z</time>
      </trkpt>
      <trkpt lat="43.9382" lon="5.22135">
        <ele>436.967</ele>
        <time>2014-05-18T09:07:34Z</time>
      </trkpt>
      <trkpt lat="43.9385" lon="5.22136">
        <ele>440.952</ele>
        <time>2014-05-18T09:08:37Z</time>
      </trkpt>
      <trkpt lat="43.93854" lon="5.22139">
        <ele>441.611</ele>
        <time>2014-05-18T09:08:42Z</time>
      </trkpt>
      <trkpt lat="43.93856" lon="5.22144">
        <ele>442.861</ele>
        <time>2014-05-18T09:08:52Z</time>
      </trkpt>
      <trkpt lat="43.93873" lon="5.22178">
        <ele>447.055</ele>
        <time>2014-05-18T09:09:27Z</time>
      </trkpt>
      <trkpt lat="43.93873" lon="5.22178">
        <ele>447.055</ele>
        <time>2014-05-18T09:09:35Z</time>
      </trkpt>
      <trkpt lat="43.93873" lon="5.22178">
        <ele>447.055</ele>
        <time>2014-05-18T09:09:37Z</time>
      </trkpt>
      <trkpt lat="43.93881" lon="5.22191">
        <ele>446.567</ele>
        <time>2014-05-18T09:09:45Z</time>
      </trkpt>
      <trkpt lat="43.93881" lon="5.22191">
        <ele>446.567</ele>
        <time>2014-05-18T09:09:53Z</time>
      </trkpt>
      <trkpt lat="43.93881" lon="5.22191">
        <ele>446.567</ele>
        <time>2014-05-18T09:09:54Z</time>
      </trkpt>
      <trkpt lat="43.93884" lon="5.22155">
        <ele>445.116</ele>
        <time>2014-05-18T09:14:46Z</time>
      </trkpt>
      <trkpt lat="43.93882" lon="5.22142">
        <ele>446.568</ele>
        <time>2014-05-18T09:14:59Z</time>
      </trkpt>
      <trkpt lat="43.93906" lon="5.22121">
        <ele>456.881</ele>
        <time>2014-05-18T09:16:59Z</time>
      </trkpt>
      <trkpt lat="43.93937" lon="5.22128">
        <ele>463.486</ele>
        <time>2014-05-18T09:17:57Z</time>
      </trkpt>
      <trkpt lat="43.93952" lon="5.22133">
        <ele>464.608</ele>
        <time>2014-05-18T09:18:11Z</time>
      </trkpt>
      <trkpt lat="43.93967" lon="5.22135">
        <ele>465.342</ele>
        <time>2014-05-18T09:18:23Z</time>
      </trkpt>
      <trkpt lat="43.93978" lon="5.22138">
        <ele>466.113</ele>
        <time>2014-05-18T09:18:33Z</time>
      </trkpt>
      <trkpt lat="43.93994" lon="5.22139">
        <ele>466.802</ele>
        <time>2014-05-18T09:18:47Z</time>
      </trkpt>
      <trkpt lat="43.9401" lon="5.22152">
        <ele>465.644</ele>
        <time>2014-05-18T09:19:09Z</time>
      </trkpt>
      <trkpt lat="43.94017" lon="5.22162">
        <ele>464.852</ele>
        <time>2014-05-18T09:19:22Z</time>
      </trkpt>
      <trkpt lat="43.94017" lon="5.22176">
        <ele>464.711</ele>
        <time>2014-05-18T09:19:38Z</time>
      </trkpt>
      <trkpt lat="43.94017" lon="5.22176">
        <ele>464.711</ele>
        <time>2014-05-18T09:22:14Z</time>
      </trkpt>
      <trkpt lat="43.94024" lon="5.22218">
        <ele>458.628</ele>
        <time>2014-05-18T09:22:23Z</time>
      </trkpt>
      <trkpt lat="43.94022" lon="5.22246">
        <ele>457.77</ele>
        <time>2014-05-18T09:22:42Z</time>
      </trkpt>
      <trkpt lat="43.94023" lon="5.22267">
        <ele>456.962</ele>
        <time>2014-05-18T09:22:53Z</time>
      </trkpt>
      <trkpt lat="43.94023" lon="5.22285">
        <ele>456.391</ele>
        <time>2014-05-18T09:23:02Z</time>
      </trkpt>
      <trkpt lat="43.9403" lon="5.22305">
        <ele>455.621</ele>
        <time>2014-05-18T09:23:13Z</time>
      </trkpt>
      <trkpt lat="43.94045" lon="5.22317">
        <ele>454.698</ele>
        <time>2014-05-18T09:23:26Z</time>
      </trkpt>
      <trkpt lat="43.9406" lon="5.22331">
        <ele>454.62</ele>
        <time>2014-05-18T09:23:40Z</time>
      </trkpt>
      <trkpt lat="43.94074" lon="5.22337">
        <ele>453.494</ele>
        <time>2014-05-18T09:23:52Z</time>
      </trkpt>
      <trkpt lat="43.94094" lon="5.22331">
        <ele>455.916</ele>
        <time>2014-05-18T09:24:05Z</time>
      </trkpt>
      <trkpt lat="43.94106" lon="5.22332">
        <ele>456.817</ele>
        <time>2014-05-18T09:24:13Z</time>
      </trkpt>
      <trkpt lat="43.94117" lon="5.22323">
        <ele>456.299</ele>
        <time>2014-05-18T09:24:21Z</time>
      </trkpt>
      <trkpt lat="43.94131" lon="5.22305">
        <ele>456.108</ele>
        <time>2014-05-18T09:24:35Z</time>
      </trkpt>
      <trkpt lat="43.94142" lon="5.22298">
        <ele>455.717</ele>
        <time>2014-05-18T09:24:45Z</time>
      </trkpt>
      <trkpt lat="43.94159" lon="5.22285">
        <ele>456.371</ele>
        <time>2014-05-18T09:25:05Z</time>
      </trkpt>
      <trkpt lat="43.94171" lon="5.22264">
        <ele>457.358</ele>
        <time>2014-05-18T09:25:24Z</time>
      </trkpt>
      <trkpt lat="43.94186" lon="5.22256">
        <ele>460.221</ele>
        <time>2014-05-18T09:25:42Z</time>
      </trkpt>
      <trkpt lat="43.94199" lon="5.22246">
        <ele>462.916</ele>
        <time>2014-05-18T09:25:55Z</time>
      </trkpt>
      <trkpt lat="43.94229" lon="5.2226">
        <ele>465.83</ele>
        <time>2014-05-18T09:26:33Z</time>
      </trkpt>
      <trkpt lat="43.94235" lon="5.22277">
        <ele>466.474</ele>
        <time>2014-05-18T09:26:45Z</time>
      </trkpt>
      <trkpt lat="43.94234" lon="5.22277">
        <ele>467.6</ele>
        <time>2014-05-18T09:26:53Z</time>
      </trkpt>
      <trkpt lat="43.94246" lon="5.22296">
        <ele>467.15</ele>
        <time>2014-05-18T09:27:23Z</time>
      </trkpt>
      <trkpt lat="43.94251" lon="5.22307">
        <ele>467.312</ele>
        <time>2014-05-18T09:27:31Z</time>
      </trkpt>
      <trkpt lat="43.94252" lon="5.2231">
        <ele>467.268</ele>
        <time>2014-05-18T09:27:39Z</time>
      </trkpt>
      <trkpt lat="43.94254" lon="5.22339">
        <ele>466.603</ele>
        <time>2014-05-18T09:28:02Z</time>
      </trkpt>
      <trkpt lat="43.94254" lon="5.22339">
        <ele>466.603</ele>
        <time>2014-05-18T09:28:10Z</time>
      </trkpt>
      <trkpt lat="43.94254" lon="5.22339">
        <ele>466.603</ele>
        <time>2014-05-18T09:28:11Z</time>
      </trkpt>
      <trkpt lat="43.94264" lon="5.22326">
        <ele>466.649</ele>
        <time>2014-05-18T09:28:24Z</time>
      </trkpt>
      <trkpt lat="43.94277" lon="5.22305">
        <ele>457.779</ele>
        <time>2014-05-18T09:28:38Z</time>
      </trkpt>
      <trkpt lat="43.94278" lon="5.22304">
        <ele>456.837</ele>
        <time>2014-05-18T09:28:46Z</time>
      </trkpt>
      <trkpt lat="43.94256" lon="5.22326">
        <ele>458.283</ele>
        <time>2014-05-18T09:29:22Z</time>
      </trkpt>
      <trkpt lat="43.94256" lon="5.22348">
        <ele>459.166</ele>
        <time>2014-05-18T09:29:33Z</time>
      </trkpt>
      <trkpt lat="43.94254" lon="5.22373">
        <ele>459.142</ele>
        <time>2014-05-18T09:29:39Z</time>
      </trkpt>
      <trkpt lat="43.94258" lon="5.22393">
        <ele>461.112</ele>
        <time>2014-05-18T09:29:49Z</time>
      </trkpt>
      <trkpt lat="43.9427" lon="5.22407">
        <ele>463.958</ele>
        <time>2014-05-18T09:30:02Z</time>
      </trkpt>
      <trkpt lat="43.94284" lon="5.22423">
        <ele>464.19</ele>
        <time>2014-05-18T09:30:18Z</time>
      </trkpt>
      <trkpt lat="43.94295" lon="5.22426">
        <ele>462.703</ele>
        <time>2014-05-18T09:30:27Z</time>
      </trkpt>
      <trkpt lat="43.94313" lon="5.22433">
        <ele>460.457</ele>
        <time>2014-05-18T09:30:42Z</time>
      </trkpt>
      <trkpt lat="43.94328" lon="5.22432">
        <ele>458.719</ele>
        <time>2014-05-18T09:30:55Z</time>
      </trkpt>
      <trkpt lat="43.94342" lon="5.22428">
        <ele>458.577</ele>
        <time>2014-05-18T09:31:06Z</time>
      </trkpt>
      <trkpt lat="43.94362" lon="5.22418">
        <ele>458.915</ele>
        <time>2014-05-18T09:31:18Z</time>
      </trkpt>
      <trkpt lat="43.94371" lon="5.22418">
        <ele>458.994</ele>
        <time>2014-05-18T09:31:31Z</time>
      </trkpt>
      <trkpt lat="43.94385" lon="5.22416">
        <ele>459.756</ele>
        <time>2014-05-18T09:31:41Z</time>
      </trkpt>
      <trkpt lat="43.94398" lon="5.22421">
        <ele>461.035</ele>
        <time>2014-05-18T09:31:53Z</time>
      </trkpt>
      <trkpt lat="43.94413" lon="5.22425">
        <ele>462.609</ele>
        <time>2014-05-18T09:32:07Z</time>
      </trkpt>
      <trkpt lat="43.94438" lon="5.22436">
        <ele>464.151</ele>
        <time>2014-05-18T09:32:26Z</time>
      </trkpt>
      <trkpt lat="43.94448" lon="5.22448">
        <ele>466.48</ele>
        <time>2014-05-18T09:32:38Z</time>
      </trkpt>
      <trkpt lat="43.94454" lon="5.22456">
        <ele>466.778</ele>
        <time>2014-05-18T09:32:43Z</time>
      </trkpt>
      <trkpt lat="43.94461" lon="5.22462">
        <ele>466.587</ele>
        <time>2014-05-18T09:32:51Z</time>
      </trkpt>
      <trkpt lat="43.94476" lon="5.22462">
        <ele>466.667</ele>
        <time>2014-05-18T09:33:01Z</time>
      </trkpt>
      <trkpt lat="43.94476" lon="5.22462">
        <ele>466.667</ele>
        <time>2014-05-18T09:33:09Z</time>
      </trkpt>
      <trkpt lat="43.94474" lon="5.22476">
        <ele>466.336</ele>
        <time>2014-05-18T09:33:14Z</time>
      </trkpt>
      <trkpt lat="43.94499" lon="5.22561">
        <ele>462.11</ele>
        <time>2014-05-18T09:33:23Z</time>
      </trkpt>
      <trkpt lat="43.94546" lon="5.22585">
        <ele>444.118</ele>
        <time>2014-05-18T09:33:33Z</time>
      </trkpt>
      <trkpt lat="43.94526" lon="5.22553">
        <ele>445.419</ele>
        <time>2014-05-18T09:33:41Z</time>
      </trkpt>
      <trkpt lat="43.9451" lon="5.225">
        <ele>449.635</ele>
        <time>2014-05-18T09:33:48Z</time>
      </trkpt>
      <trkpt lat="43.94508" lon="5.22488">
        <ele>451.283</ele>
        <time>2014-05-18T09:33:51Z</time>
      </trkpt>
      <trkpt lat="43.94504" lon="5.22485">
        <ele>453.396</ele>
        <time>2014-05-18T09:33:58Z</time>
      </trkpt>
      <trkpt lat="43.94491" lon="5.22516">
        <ele>459.872</ele>
        <time>2014-05-18T09:34:50Z</time>
      </trkpt>
      <trkpt lat="43.94484" lon="5.22532">
        <ele>460.192</ele>
        <time>2014-05-18T09:34:57Z</time>
      </trkpt>
      <trkpt lat="43.94491" lon="5.22483">
        <ele>460.499</ele>
        <time>2014-05-18T09:34:58Z</time>
      </trkpt>
      <trkpt lat="43.94499" lon="5.22486">
        <ele>460.893</ele>
        <time>2014-05-18T09:35:07Z</time>
      </trkpt>
      <trkpt lat="43.94506" lon="5.22519">
        <ele>464.051</ele>
        <time>2014-05-18T09:37:48Z</time>
      </trkpt>
      <trkpt lat="43.94506" lon="5.22519">
        <ele>464.051</ele>
        <time>2014-05-18T09:37:53Z</time>
      </trkpt>
      <trkpt lat="43.94514" lon="5.22528">
        <ele>464.41</ele>
        <time>2014-05-18T09:37:58Z</time>
      </trkpt>
      <trkpt lat="43.94524" lon="5.22524">
        <ele>464.964</ele>
        <time>2014-05-18T09:38:06Z</time>
      </trkpt>
      <trkpt lat="43.94526" lon="5.22519">
        <ele>465.731</ele>
        <time>2014-05-18T09:38:16Z</time>
      </trkpt>
      <trkpt lat="43.94506" lon="5.22522">
        <ele>470.502</ele>
        <time>2014-05-18T09:39:02Z</time>
      </trkpt>
      <trkpt lat="43.94506" lon="5.22522">
        <ele>470.502</ele>
        <time>2014-05-18T09:39:08Z</time>
      </trkpt>
      <trkpt lat="43.94497" lon="5.22511">
        <ele>472.391</ele>
        <time>2014-05-18T09:39:15Z</time>
      </trkpt>
      <trkpt lat="43.94491" lon="5.22502">
        <ele>472.267</ele>
        <time>2014-05-18T09:39:27Z</time>
      </trkpt>
      <trkpt lat="43.94487" lon="5.22501">
        <ele>472.473</ele>
        <time>2014-05-18T09:39:39Z</time>
      </trkpt>
      <trkpt lat="43.94491" lon="5.22529">
        <ele>475.409</ele>
        <time>2014-05-18T09:40:32Z</time>
      </trkpt>
      <trkpt lat="43.94499" lon="5.22548">
        <ele>476.724</ele>
        <time>2014-05-18T09:40:52Z</time>
      </trkpt>
      <trkpt lat="43.94506" lon="5.22567">
        <ele>477.082</ele>
        <time>2014-05-18T09:41:07Z</time>
      </trkpt>
      <trkpt lat="43.94515" lon="5.22591">
        <ele>476.967</ele>
        <time>2014-05-18T09:41:24Z</time>
      </trkpt>
      <trkpt lat="43.94531" lon="5.22612">
        <ele>478.191</ele>
        <time>2014-05-18T09:41:43Z</time>
      </trkpt>
      <trkpt lat="43.94543" lon="5.2264">
        <ele>479.03</ele>
        <time>2014-05-18T09:42:01Z</time>
      </trkpt>
      <trkpt lat="43.94553" lon="5.22656">
        <ele>480.553</ele>
        <time>2014-05-18T09:42:17Z</time>
      </trkpt>
      <trkpt lat="43.94565" lon="5.22677">
        <ele>482.602</ele>
        <time>2014-05-18T09:42:34Z</time>
      </trkpt>
      <trkpt lat="43.94572" lon="5.22701">
        <ele>482.474</ele>
        <time>2014-05-18T09:42:52Z</time>
      </trkpt>
      <trkpt lat="43.94582" lon="5.22711">
        <ele>482.694</ele>
        <time>2014-05-18T09:43:00Z</time>
      </trkpt>
      <trkpt lat="43.94598" lon="5.2274">
        <ele>481.77</ele>
        <time>2014-05-18T09:44:21Z</time>
      </trkpt>
      <trkpt lat="43.94609" lon="5.22751">
        <ele>480.892</ele>
        <time>2014-05-18T09:44:32Z</time>
      </trkpt>
      <trkpt lat="43.94623" lon="5.22764">
        <ele>480.663</ele>
        <time>2014-05-18T09:44:48Z</time>
      </trkpt>
      <trkpt lat="43.94642" lon="5.22786">
        <ele>481.245</ele>
        <time>2014-05-18T09:45:08Z</time>
      </trkpt>
      <trkpt lat="43.94654" lon="5.22808">
        <ele>481.06</ele>
        <time>2014-05-18T09:45:23Z</time>
      </trkpt>
      <trkpt lat="43.94664" lon="5.22825">
        <ele>480.823</ele>
        <time>2014-05-18T09:45:34Z</time>
      </trkpt>
      <trkpt lat="43.9467" lon="5.22854">
        <ele>482.251</ele>
        <time>2014-05-18T09:45:51Z</time>
      </trkpt>
      <trkpt lat="43.94681" lon="5.22878">
        <ele>484.028</ele>
        <time>2014-05-18T09:46:06Z</time>
      </trkpt>
      <trkpt lat="43.94693" lon="5.22892">
        <ele>483.376</ele>
        <time>2014-05-18T09:46:18Z</time>
      </trkpt>
      <trkpt lat="43.94702" lon="5.229">
        <ele>482.976</ele>
        <time>2014-05-18T09:46:28Z</time>
      </trkpt>
      <trkpt lat="43.94714" lon="5.22928">
        <ele>482.945</ele>
        <time>2014-05-18T09:46:45Z</time>
      </trkpt>
      <trkpt lat="43.94728" lon="5.22952">
        <ele>482.691</ele>
        <time>2014-05-18T09:47:04Z</time>
      </trkpt>
      <trkpt lat="43.94738" lon="5.22979">
        <ele>483.678</ele>
        <time>2014-05-18T09:47:20Z</time>
      </trkpt>
      <trkpt lat="43.94747" lon="5.22991">
        <ele>483.77</ele>
        <time>2014-05-18T09:47:30Z</time>
      </trkpt>
      <trkpt lat="43.94758" lon="5.23011">
        <ele>484.085</ele>
        <time>2014-05-18T09:47:43Z</time>
      </trkpt>
      <trkpt lat="43.9477" lon="5.23027">
        <ele>484.338</ele>
        <time>2014-05-18T09:47:57Z</time>
      </trkpt>
      <trkpt lat="43.94779" lon="5.2304">
        <ele>485.027</ele>
        <time>2014-05-18T09:48:07Z</time>
      </trkpt>
      <trkpt lat="43.94782" lon="5.23041">
        <ele>485.259</ele>
        <time>2014-05-18T09:48:20Z</time>
      </trkpt>
      <trkpt lat="43.94794" lon="5.23055">
        <ele>484.761</ele>
        <time>2014-05-18T09:49:10Z</time>
      </trkpt>
      <trkpt lat="43.94806" lon="5.23058">
        <ele>485.318</ele>
        <time>2014-05-18T09:49:22Z</time>
      </trkpt>
      <trkpt lat="43.9483" lon="5.23062">
        <ele>486.767</ele>
        <time>2014-05-18T09:49:39Z</time>
      </trkpt>
      <trkpt lat="43.94847" lon="5.23072">
        <ele>487.227</ele>
        <time>2014-05-18T09:49:53Z</time>
      </trkpt>
      <trkpt lat="43.94855" lon="5.23083">
        <ele>487.032</ele>
        <time>2014-05-18T09:50:00Z</time>
      </trkpt>
      <trkpt lat="43.94866" lon="5.23091">
        <ele>487.796</ele>
        <time>2014-05-18T09:50:09Z</time>
      </trkpt>
      <trkpt lat="43.9488" lon="5.23104">
        <ele>487.93</ele>
        <time>2014-05-18T09:50:22Z</time>
      </trkpt>
      <trkpt lat="43.94886" lon="5.23129">
        <ele>488.618</ele>
        <time>2014-05-18T09:50:40Z</time>
      </trkpt>
      <trkpt lat="43.94888" lon="5.23151">
        <ele>488.248</ele>
        <time>2014-05-18T09:50:54Z</time>
      </trkpt>
      <trkpt lat="43.94888" lon="5.23171">
        <ele>488.678</ele>
        <time>2014-05-18T09:51:05Z</time>
      </trkpt>
      <trkpt lat="43.94887" lon="5.23198">
        <ele>489.66</ele>
        <time>2014-05-18T09:51:20Z</time>
      </trkpt>
      <trkpt lat="43.94885" lon="5.23224">
        <ele>489.627</ele>
        <time>2014-05-18T09:51:34Z</time>
      </trkpt>
      <trkpt lat="43.94887" lon="5.23249">
        <ele>489.706</ele>
        <time>2014-05-18T09:51:49Z</time>
      </trkpt>
      <trkpt lat="43.94889" lon="5.23272">
        <ele>490.243</ele>
        <time>2014-05-18T09:52:03Z</time>
      </trkpt>
      <trkpt lat="43.94887" lon="5.23293">
        <ele>490.865</ele>
        <time>2014-05-18T09:52:19Z</time>
      </trkpt>
      <trkpt lat="43.94884" lon="5.23313">
        <ele>491.605</ele>
        <time>2014-05-18T09:52:32Z</time>
      </trkpt>
      <trkpt lat="43.9489" lon="5.23336">
        <ele>493.091</ele>
        <time>2014-05-18T09:52:46Z</time>
      </trkpt>
      <trkpt lat="43.94891" lon="5.23364">
        <ele>493.953</ele>
        <time>2014-05-18T09:53:00Z</time>
      </trkpt>
      <trkpt lat="43.94895" lon="5.2338">
        <ele>493.674</ele>
        <time>2014-05-18T09:53:10Z</time>
      </trkpt>
      <trkpt lat="43.94902" lon="5.23403">
        <ele>493.32</ele>
        <time>2014-05-18T09:53:24Z</time>
      </trkpt>
      <trkpt lat="43.9491" lon="5.23423">
        <ele>494.232</ele>
        <time>2014-05-18T09:53:37Z</time>
      </trkpt>
      <trkpt lat="43.94915" lon="5.23441">
        <ele>495.621</ele>
        <time>2014-05-18T09:53:52Z</time>
      </trkpt>
      <trkpt lat="43.94917" lon="5.23461">
        <ele>496.585</ele>
        <time>2014-05-18T09:54:07Z</time>
      </trkpt>
      <trkpt lat="43.94919" lon="5.23479">
        <ele>495.957</ele>
        <time>2014-05-18T09:54:18Z</time>
      </trkpt>
      <trkpt lat="43.94922" lon="5.23499">
        <ele>495.88</ele>
        <time>2014-05-18T09:54:27Z</time>
      </trkpt>
      <trkpt lat="43.94925" lon="5.23522">
        <ele>496.763</ele>
        <time>2014-05-18T09:54:37Z</time>
      </trkpt>
      <trkpt lat="43.94925" lon="5.23543">
        <ele>496.12</ele>
        <time>2014-05-18T09:54:53Z</time>
      </trkpt>
      <trkpt lat="43.94935" lon="5.23568">
        <ele>496.296</ele>
        <time>2014-05-18T09:55:11Z</time>
      </trkpt>
      <trkpt lat="43.94944" lon="5.23595">
        <ele>496.577</ele>
        <time>2014-05-18T09:55:28Z</time>
      </trkpt>
      <trkpt lat="43.94954" lon="5.23615">
        <ele>495.869</ele>
        <time>2014-05-18T09:55:42Z</time>
      </trkpt>
      <trkpt lat="43.94961" lon="5.23644">
        <ele>496.257</ele>
        <time>2014-05-18T09:56:04Z</time>
      </trkpt>
      <trkpt lat="43.94969" lon="5.2366">
        <ele>497.639</ele>
        <time>2014-05-18T09:56:12Z</time>
      </trkpt>
      <trkpt lat="43.94974" lon="5.23677">
        <ele>499.592</ele>
        <time>2014-05-18T09:56:24Z</time>
      </trkpt>
      <trkpt lat="43.9498" lon="5.23697">
        <ele>501.835</ele>
        <time>2014-05-18T09:56:38Z</time>
      </trkpt>
      <trkpt lat="43.94988" lon="5.23726">
        <ele>501.851</ele>
        <time>2014-05-18T09:56:55Z</time>
      </trkpt>
      <trkpt lat="43.94992" lon="5.23757">
        <ele>502.869</ele>
        <time>2014-05-18T09:57:09Z</time>
      </trkpt>
      <trkpt lat="43.94996" lon="5.23769">
        <ele>503.824</ele>
        <time>2014-05-18T09:57:17Z</time>
      </trkpt>
      <trkpt lat="43.95004" lon="5.23775">
        <ele>504.889</ele>
        <time>2014-05-18T09:57:29Z</time>
      </trkpt>
      <trkpt lat="43.95009" lon="5.23792">
        <ele>504.95</ele>
        <time>2014-05-18T09:57:39Z</time>
      </trkpt>
      <trkpt lat="43.95009" lon="5.23805">
        <ele>504.825</ele>
        <time>2014-05-18T09:57:55Z</time>
      </trkpt>
      <trkpt lat="43.95022" lon="5.23844">
        <ele>509.419</ele>
        <time>2014-05-18T09:59:15Z</time>
      </trkpt>
      <trkpt lat="43.9503" lon="5.23864">
        <ele>512.088</ele>
        <time>2014-05-18T09:59:31Z</time>
      </trkpt>
      <trkpt lat="43.95043" lon="5.23884">
        <ele>513.859</ele>
        <time>2014-05-18T09:59:48Z</time>
      </trkpt>
      <trkpt lat="43.95047" lon="5.2389">
        <ele>514.445</ele>
        <time>2014-05-18T09:59:53Z</time>
      </trkpt>
      <trkpt lat="43.95055" lon="5.23894">
        <ele>515.545</ele>
        <time>2014-05-18T10:00:08Z</time>
      </trkpt>
      <trkpt lat="43.95069" lon="5.23898">
        <ele>516.099</ele>
        <time>2014-05-18T10:00:20Z</time>
      </trkpt>
      <trkpt lat="43.95086" lon="5.23904">
        <ele>517.592</ele>
        <time>2014-05-18T10:00:33Z</time>
      </trkpt>
      <trkpt lat="43.95092" lon="5.23906">
        <ele>517.671</ele>
        <time>2014-05-18T10:00:39Z</time>
      </trkpt>
      <trkpt lat="43.95092" lon="5.23906">
        <ele>517.637</ele>
        <time>2014-05-18T10:00:50Z</time>
      </trkpt>
      <trkpt lat="43.9512" lon="5.23926">
        <ele>519.486</ele>
        <time>2014-05-18T10:02:48Z</time>
      </trkpt>
      <trkpt lat="43.95133" lon="5.23938">
        <ele>519.935</ele>
        <time>2014-05-18T10:03:04Z</time>
      </trkpt>
      <trkpt lat="43.95148" lon="5.23945">
        <ele>520.932</ele>
        <time>2014-05-18T10:03:17Z</time>
      </trkpt>
      <trkpt lat="43.95166" lon="5.2396">
        <ele>522.489</ele>
        <time>2014-05-18T10:03:34Z</time>
      </trkpt>
      <trkpt lat="43.95181" lon="5.23974">
        <ele>525.03</ele>
        <time>2014-05-18T10:03:48Z</time>
      </trkpt>
      <trkpt lat="43.95192" lon="5.23989">
        <ele>527.617</ele>
        <time>2014-05-18T10:04:01Z</time>
      </trkpt>
      <trkpt lat="43.95194" lon="5.24009">
        <ele>529.41</ele>
        <time>2014-05-18T10:04:13Z</time>
      </trkpt>
      <trkpt lat="43.95179" lon="5.24018">
        <ele>531.114</ele>
        <time>2014-05-18T10:04:27Z</time>
      </trkpt>
      <trkpt lat="43.9516" lon="5.24014">
        <ele>533.096</ele>
        <time>2014-05-18T10:04:42Z</time>
      </trkpt>
      <trkpt lat="43.95141" lon="5.24013">
        <ele>535.024</ele>
        <time>2014-05-18T10:04:58Z</time>
      </trkpt>
      <trkpt lat="43.95121" lon="5.24008">
        <ele>537.022</ele>
        <time>2014-05-18T10:05:15Z</time>
      </trkpt>
      <trkpt lat="43.95121" lon="5.24008">
        <ele>537.022</ele>
        <time>2014-05-18T10:05:23Z</time>
      </trkpt>
      <trkpt lat="43.95121" lon="5.24008">
        <ele>537.022</ele>
        <time>2014-05-18T10:05:24Z</time>
      </trkpt>
      <trkpt lat="43.95115" lon="5.24046">
        <ele>539.85</ele>
        <time>2014-05-18T10:06:10Z</time>
      </trkpt>
      <trkpt lat="43.9512" lon="5.24065">
        <ele>540.535</ele>
        <time>2014-05-18T10:06:25Z</time>
      </trkpt>
      <trkpt lat="43.95121" lon="5.24072">
        <ele>541.056</ele>
        <time>2014-05-18T10:06:30Z</time>
      </trkpt>
      <trkpt lat="43.95123" lon="5.24084">
        <ele>541.861</ele>
        <time>2014-05-18T10:06:44Z</time>
      </trkpt>
      <trkpt lat="43.95123" lon="5.24087">
        <ele>542.035</ele>
        <time>2014-05-18T10:06:47Z</time>
      </trkpt>
      <trkpt lat="43.95123" lon="5.24084">
        <ele>541.861</ele>
        <time>2014-05-18T10:06:56Z</time>
      </trkpt>
      <trkpt lat="43.95129" lon="5.24104">
        <ele>544.85</ele>
        <time>2014-05-18T10:07:11Z</time>
      </trkpt>
      <trkpt lat="43.95132" lon="5.24135">
        <ele>546.761</ele>
        <time>2014-05-18T10:07:31Z</time>
      </trkpt>
      <trkpt lat="43.95147" lon="5.24139">
        <ele>546.646</ele>
        <time>2014-05-18T10:07:45Z</time>
      </trkpt>
      <trkpt lat="43.95149" lon="5.24139">
        <ele>546.249</ele>
        <time>2014-05-18T10:07:54Z</time>
      </trkpt>
      <trkpt lat="43.9516" lon="5.24126">
        <ele>548.094</ele>
        <time>2014-05-18T10:08:26Z</time>
      </trkpt>
      <trkpt lat="43.95172" lon="5.24118">
        <ele>549.105</ele>
        <time>2014-05-18T10:08:40Z</time>
      </trkpt>
      <trkpt lat="43.95187" lon="5.24112">
        <ele>551.068</ele>
        <time>2014-05-18T10:08:54Z</time>
      </trkpt>
      <trkpt lat="43.952" lon="5.2411">
        <ele>551.932</ele>
        <time>2014-05-18T10:09:05Z</time>
      </trkpt>
      <trkpt lat="43.95217" lon="5.24115">
        <ele>552.628</ele>
        <time>2014-05-18T10:09:23Z</time>
      </trkpt>
      <trkpt lat="43.95217" lon="5.24115">
        <ele>552.628</ele>
        <time>2014-05-18T10:09:31Z</time>
      </trkpt>
      <trkpt lat="43.95224" lon="5.24103">
        <ele>552.649</ele>
        <time>2014-05-18T10:09:36Z</time>
      </trkpt>
      <trkpt lat="43.95241" lon="5.24095">
        <ele>552.841</ele>
        <time>2014-05-18T10:09:49Z</time>
      </trkpt>
      <trkpt lat="43.95242" lon="5.24082">
        <ele>553.266</ele>
        <time>2014-05-18T10:10:00Z</time>
      </trkpt>
      <trkpt lat="43.95241" lon="5.24082">
        <ele>553.302</ele>
        <time>2014-05-18T10:10:08Z</time>
      </trkpt>
      <trkpt lat="43.95253" lon="5.24081">
        <ele>553.01</ele>
        <time>2014-05-18T10:10:48Z</time>
      </trkpt>
      <trkpt lat="43.95253" lon="5.24081">
        <ele>553.01</ele>
        <time>2014-05-18T10:10:59Z</time>
      </trkpt>
      <trkpt lat="43.95253" lon="5.24081">
        <ele>553.01</ele>
        <time>2014-05-18T10:11:01Z</time>
      </trkpt>
      <trkpt lat="43.95253" lon="5.24081">
        <ele>501</ele>
        <time>2014-05-18T10:13:03Z</time>
      </trkpt>
      <trkpt lat="43.95253" lon="5.24081">
        <ele>501</ele>
        <time>2014-05-18T10:17:25Z</time>
      </trkpt>
      <trkpt lat="43.95255" lon="5.2408">
        <ele>547.377</ele>
        <time>2014-05-18T10:17:26Z</time>
      </trkpt>
      <trkpt lat="43.95239" lon="5.24113">
        <ele>551.667</ele>
        <time>2014-05-18T10:18:05Z</time>
      </trkpt>
      <trkpt lat="43.95239" lon="5.24113">
        <ele>551.667</ele>
        <time>2014-05-18T10:18:12Z</time>
      </trkpt>
      <trkpt lat="43.95239" lon="5.24113">
        <ele>551.667</ele>
        <time>2014-05-18T10:18:13Z</time>
      </trkpt>
      <trkpt lat="43.95236" lon="5.24151">
        <ele>556.521</ele>
        <time>2014-05-18T10:19:09Z</time>
      </trkpt>
      <trkpt lat="43.95228" lon="5.24165">
        <ele>560.28</ele>
        <time>2014-05-18T10:19:28Z</time>
      </trkpt>
      <trkpt lat="43.95199" lon="5.24179">
        <ele>569.805</ele>
        <time>2014-05-18T10:20:04Z</time>
      </trkpt>
      <trkpt lat="43.9519" lon="5.24174">
        <ele>569.805</ele>
        <time>2014-05-18T10:20:07Z</time>
      </trkpt>
      <trkpt lat="43.95199" lon="5.24171">
        <ele>570.136</ele>
        <time>2014-05-18T10:20:21Z</time>
      </trkpt>
      <trkpt lat="43.95222" lon="5.24166">
        <ele>569.313</ele>
        <time>2014-05-18T10:20:34Z</time>
      </trkpt>
      <trkpt lat="43.95232" lon="5.24165">
        <ele>569.099</ele>
        <time>2014-05-18T10:20:41Z</time>
      </trkpt>
      <trkpt lat="43.95236" lon="5.24165">
        <ele>569.091</ele>
        <time>2014-05-18T10:20:45Z</time>
      </trkpt>
      <trkpt lat="43.9524" lon="5.24165">
        <ele>569.104</ele>
        <time>2014-05-18T10:20:54Z</time>
      </trkpt>
      <trkpt lat="43.95229" lon="5.24197">
        <ele>570.784</ele>
        <time>2014-05-18T10:21:47Z</time>
      </trkpt>
      <trkpt lat="43.95208" lon="5.24219">
        <ele>572.528</ele>
        <time>2014-05-18T10:23:01Z</time>
      </trkpt>
      <trkpt lat="43.95209" lon="5.24228">
        <ele>571.886</ele>
        <time>2014-05-18T10:23:07Z</time>
      </trkpt>
      <trkpt lat="43.95214" lon="5.24226">
        <ele>572.153</ele>
        <time>2014-05-18T10:23:16Z</time>
      </trkpt>
      <trkpt lat="43.95211" lon="5.24265">
        <ele>569.5</ele>
        <time>2014-05-18T10:24:02Z</time>
      </trkpt>
      <trkpt lat="43.95223" lon="5.24278">
        <ele>568.9</ele>
        <time>2014-05-18T10:24:18Z</time>
      </trkpt>
      <trkpt lat="43.95233" lon="5.24291">
        <ele>568.047</ele>
        <time>2014-05-18T10:24:30Z</time>
      </trkpt>
      <trkpt lat="43.95243" lon="5.24305">
        <ele>565.299</ele>
        <time>2014-05-18T10:24:48Z</time>
      </trkpt>
      <trkpt lat="43.95255" lon="5.24325">
        <ele>563.736</ele>
        <time>2014-05-18T10:25:04Z</time>
      </trkpt>
      <trkpt lat="43.95252" lon="5.2436">
        <ele>564.381</ele>
        <time>2014-05-18T10:25:23Z</time>
      </trkpt>
      <trkpt lat="43.95252" lon="5.2436">
        <ele>564.381</ele>
        <time>2014-05-18T10:25:28Z</time>
      </trkpt>
      <trkpt lat="43.95252" lon="5.2436">
        <ele>564.381</ele>
        <time>2014-05-18T10:25:29Z</time>
      </trkpt>
      <trkpt lat="43.95258" lon="5.24323">
        <ele>567.04</ele>
        <time>2014-05-18T10:26:17Z</time>
      </trkpt>
      <trkpt lat="43.95258" lon="5.24323">
        <ele>567.04</ele>
        <time>2014-05-18T10:28:17Z</time>
      </trkpt>
      <trkpt lat="43.95236" lon="5.24315">
        <ele>570.243</ele>
        <time>2014-05-18T10:28:28Z</time>
      </trkpt>
      <trkpt lat="43.95222" lon="5.24298">
        <ele>569.582</ele>
        <time>2014-05-18T10:28:44Z</time>
      </trkpt>
      <trkpt lat="43.95214" lon="5.24287">
        <ele>569.302</ele>
        <time>2014-05-18T10:28:55Z</time>
      </trkpt>
      <trkpt lat="43.95209" lon="5.24278">
        <ele>568.759</ele>
        <time>2014-05-18T10:29:03Z</time>
      </trkpt>
      <trkpt lat="43.95194" lon="5.24258">
        <ele>566.698</ele>
        <time>2014-05-18T10:29:20Z</time>
      </trkpt>
      <trkpt lat="43.95181" lon="5.2424">
        <ele>566.328</ele>
        <time>2014-05-18T10:29:38Z</time>
      </trkpt>
      <trkpt lat="43.95172" lon="5.24229">
        <ele>565.774</ele>
        <time>2014-05-18T10:29:47Z</time>
      </trkpt>
      <trkpt lat="43.95156" lon="5.24219">
        <ele>563.869</ele>
        <time>2014-05-18T10:30:00Z</time>
      </trkpt>
      <trkpt lat="43.95147" lon="5.24216">
        <ele>562.805</ele>
        <time>2014-05-18T10:30:11Z</time>
      </trkpt>
      <trkpt lat="43.95128" lon="5.24214">
        <ele>560.53</ele>
        <time>2014-05-18T10:30:28Z</time>
      </trkpt>
      <trkpt lat="43.95124" lon="5.24216">
        <ele>560.232</ele>
        <time>2014-05-18T10:30:32Z</time>
      </trkpt>
      <trkpt lat="43.95122" lon="5.24214">
        <ele>559.636</ele>
        <time>2014-05-18T10:30:42Z</time>
      </trkpt>
      <trkpt lat="43.95122" lon="5.24236">
        <ele>556.848</ele>
        <time>2014-05-18T10:31:12Z</time>
      </trkpt>
      <trkpt lat="43.95117" lon="5.24246">
        <ele>556.116</ele>
        <time>2014-05-18T10:31:18Z</time>
      </trkpt>
      <trkpt lat="43.95117" lon="5.24257">
        <ele>554.748</ele>
        <time>2014-05-18T10:31:34Z</time>
      </trkpt>
      <trkpt lat="43.95117" lon="5.2428">
        <ele>553.508</ele>
        <time>2014-05-18T10:31:47Z</time>
      </trkpt>
      <trkpt lat="43.95114" lon="5.24301">
        <ele>552.603</ele>
        <time>2014-05-18T10:32:02Z</time>
      </trkpt>
      <trkpt lat="43.95105" lon="5.24322">
        <ele>551.897</ele>
        <time>2014-05-18T10:32:18Z</time>
      </trkpt>
      <trkpt lat="43.95083" lon="5.24299">
        <ele>551.823</ele>
        <time>2014-05-18T10:32:58Z</time>
      </trkpt>
      <trkpt lat="43.95073" lon="5.24311">
        <ele>554.715</ele>
        <time>2014-05-18T10:33:20Z</time>
      </trkpt>
      <trkpt lat="43.95063" lon="5.2432">
        <ele>558.553</ele>
        <time>2014-05-18T10:33:35Z</time>
      </trkpt>
      <trkpt lat="43.95063" lon="5.2432">
        <ele>558.553</ele>
        <time>2014-05-18T10:33:40Z</time>
      </trkpt>
      <trkpt lat="43.95063" lon="5.2432">
        <ele>558.553</ele>
        <time>2014-05-18T10:33:41Z</time>
      </trkpt>
      <trkpt lat="43.95056" lon="5.24299">
        <ele>557.47</ele>
        <time>2014-05-18T10:33:55Z</time>
      </trkpt>
      <trkpt lat="43.95066" lon="5.24287">
        <ele>556.434</ele>
        <time>2014-05-18T10:34:10Z</time>
      </trkpt>
      <trkpt lat="43.95051" lon="5.2426">
        <ele>553.694</ele>
        <time>2014-05-18T10:34:42Z</time>
      </trkpt>
      <trkpt lat="43.95038" lon="5.24247">
        <ele>552.691</ele>
        <time>2014-05-18T10:35:02Z</time>
      </trkpt>
      <trkpt lat="43.95038" lon="5.24247">
        <ele>552.691</ele>
        <time>2014-05-18T10:35:09Z</time>
      </trkpt>
      <trkpt lat="43.95038" lon="5.24247">
        <ele>552.691</ele>
        <time>2014-05-18T10:35:10Z</time>
      </trkpt>
      <trkpt lat="43.95038" lon="5.24247">
        <ele>496.9</ele>
        <time>2014-05-18T10:36:19Z</time>
      </trkpt>
      <trkpt lat="43.95038" lon="5.24247">
        <ele>496.9</ele>
        <time>2014-05-18T11:48:32Z</time>
      </trkpt>
      <trkpt lat="43.95043" lon="5.24259">
        <ele>543.316</ele>
        <time>2014-05-18T11:48:33Z</time>
      </trkpt>
      <trkpt lat="43.95064" lon="5.2425">
        <ele>555.125</ele>
        <time>2014-05-18T11:50:24Z</time>
      </trkpt>
      <trkpt lat="43.95064" lon="5.2425">
        <ele>555.125</ele>
        <time>2014-05-18T11:50:33Z</time>
      </trkpt>
      <trkpt lat="43.95064" lon="5.2425">
        <ele>555.125</ele>
        <time>2014-05-18T11:50:38Z</time>
      </trkpt>
      <trkpt lat="43.95074" lon="5.24264">
        <ele>550.225</ele>
        <time>2014-05-18T11:51:07Z</time>
      </trkpt>
      <trkpt lat="43.95079" lon="5.24268">
        <ele>549.229</ele>
        <time>2014-05-18T11:51:10Z</time>
      </trkpt>
      <trkpt lat="43.9508" lon="5.24272">
        <ele>547.785</ele>
        <time>2014-05-18T11:51:20Z</time>
      </trkpt>
      <trkpt lat="43.95103" lon="5.24293">
        <ele>546.955</ele>
        <time>2014-05-18T11:52:01Z</time>
      </trkpt>
      <trkpt lat="43.95106" lon="5.24294">
        <ele>547.112</ele>
        <time>2014-05-18T11:52:05Z</time>
      </trkpt>
      <trkpt lat="43.95106" lon="5.24294">
        <ele>548.002</ele>
        <time>2014-05-18T11:52:15Z</time>
      </trkpt>
      <trkpt lat="43.95102" lon="5.2432">
        <ele>545.996</ele>
        <time>2014-05-18T11:53:58Z</time>
      </trkpt>
      <trkpt lat="43.95102" lon="5.2432">
        <ele>545.996</ele>
        <time>2014-05-18T11:54:03Z</time>
      </trkpt>
      <trkpt lat="43.95102" lon="5.2432">
        <ele>545.996</ele>
        <time>2014-05-18T11:54:04Z</time>
      </trkpt>
      <trkpt lat="43.95084" lon="5.24316">
        <ele>548.225</ele>
        <time>2014-05-18T11:55:18Z</time>
      </trkpt>
      <trkpt lat="43.95068" lon="5.24309">
        <ele>547.67</ele>
        <time>2014-05-18T11:55:33Z</time>
      </trkpt>
      <trkpt lat="43.95054" lon="5.24296">
        <ele>548.786</ele>
        <time>2014-05-18T11:55:48Z</time>
      </trkpt>
      <trkpt lat="43.95043" lon="5.24288">
        <ele>549.028</ele>
        <time>2014-05-18T11:56:00Z</time>
      </trkpt>
      <trkpt lat="43.95035" lon="5.24279">
        <ele>549.004</ele>
        <time>2014-05-18T11:56:12Z</time>
      </trkpt>
      <trkpt lat="43.95029" lon="5.24273">
        <ele>549.452</ele>
        <time>2014-05-18T11:56:23Z</time>
      </trkpt>
      <trkpt lat="43.9501" lon="5.24253">
        <ele>549.849</ele>
        <time>2014-05-18T11:56:44Z</time>
      </trkpt>
      <trkpt lat="43.9499" lon="5.24241">
        <ele>550.458</ele>
        <time>2014-05-18T11:57:04Z</time>
      </trkpt>
      <trkpt lat="43.94973" lon="5.24231">
        <ele>551.297</ele>
        <time>2014-05-18T11:57:20Z</time>
      </trkpt>
      <trkpt lat="43.94962" lon="5.24224">
        <ele>551.709</ele>
        <time>2014-05-18T11:57:33Z</time>
      </trkpt>
      <trkpt lat="43.94957" lon="5.24223">
        <ele>551.821</ele>
        <time>2014-05-18T11:57:35Z</time>
      </trkpt>
      <trkpt lat="43.94951" lon="5.24219">
        <ele>552.074</ele>
        <time>2014-05-18T11:57:43Z</time>
      </trkpt>
      <trkpt lat="43.94934" lon="5.24209">
        <ele>552.044</ele>
        <time>2014-05-18T11:57:59Z</time>
      </trkpt>
      <trkpt lat="43.94922" lon="5.24202">
        <ele>552.809</ele>
        <time>2014-05-18T11:58:13Z</time>
      </trkpt>
      <trkpt lat="43.94918" lon="5.24194">
        <ele>552.786</ele>
        <time>2014-05-18T11:58:21Z</time>
      </trkpt>
      <trkpt lat="43.94911" lon="5.24188">
        <ele>553.721</ele>
        <time>2014-05-18T11:58:33Z</time>
      </trkpt>
      <trkpt lat="43.94902" lon="5.24173">
        <ele>553.985</ele>
        <time>2014-05-18T11:58:46Z</time>
      </trkpt>
      <trkpt lat="43.94892" lon="5.24157">
        <ele>553.905</ele>
        <time>2014-05-18T11:59:00Z</time>
      </trkpt>
      <trkpt lat="43.94888" lon="5.24138">
        <ele>554.066</ele>
        <time>2014-05-18T11:59:13Z</time>
      </trkpt>
      <trkpt lat="43.94881" lon="5.24113">
        <ele>552.917</ele>
        <time>2014-05-18T11:59:28Z</time>
      </trkpt>
      <trkpt lat="43.94919" lon="5.24096">
        <ele>554.801</ele>
        <time>2014-05-18T11:59:44Z</time>
      </trkpt>
      <trkpt lat="43.94919" lon="5.24096">
        <ele>554.801</ele>
        <time>2014-05-18T11:59:50Z</time>
      </trkpt>
      <trkpt lat="43.94919" lon="5.24096">
        <ele>554.801</ele>
        <time>2014-05-18T11:59:51Z</time>
      </trkpt>
      <trkpt lat="43.9489" lon="5.24103">
        <ele>552.981</ele>
        <time>2014-05-18T12:00:01Z</time>
      </trkpt>
      <trkpt lat="43.94885" lon="5.24089">
        <ele>553.241</ele>
        <time>2014-05-18T12:00:11Z</time>
      </trkpt>
      <trkpt lat="43.94883" lon="5.24069">
        <ele>553.721</ele>
        <time>2014-05-18T12:00:25Z</time>
      </trkpt>
      <trkpt lat="43.94874" lon="5.24053">
        <ele>553.716</ele>
        <time>2014-05-18T12:00:40Z</time>
      </trkpt>
      <trkpt lat="43.94871" lon="5.24034">
        <ele>553.728</ele>
        <time>2014-05-18T12:00:52Z</time>
      </trkpt>
      <trkpt lat="43.94871" lon="5.24034">
        <ele>553.728</ele>
        <time>2014-05-18T12:01:03Z</time>
      </trkpt>
      <trkpt lat="43.94862" lon="5.23996">
        <ele>553.339</ele>
        <time>2014-05-18T12:01:37Z</time>
      </trkpt>
      <trkpt lat="43.94862" lon="5.23996">
        <ele>553.339</ele>
        <time>2014-05-18T12:01:45Z</time>
      </trkpt>
      <trkpt lat="43.94862" lon="5.23996">
        <ele>553.339</ele>
        <time>2014-05-18T12:01:46Z</time>
      </trkpt>
      <trkpt lat="43.94861" lon="5.23975">
        <ele>553.79</ele>
        <time>2014-05-18T12:01:57Z</time>
      </trkpt>
      <trkpt lat="43.94855" lon="5.23963">
        <ele>553.54</ele>
        <time>2014-05-18T12:02:06Z</time>
      </trkpt>
      <trkpt lat="43.94846" lon="5.23946">
        <ele>552.945</ele>
        <time>2014-05-18T12:02:20Z</time>
      </trkpt>
      <trkpt lat="43.9484" lon="5.23931">
        <ele>553.647</ele>
        <time>2014-05-18T12:02:30Z</time>
      </trkpt>
      <trkpt lat="43.94828" lon="5.2392">
        <ele>554.346</ele>
        <time>2014-05-18T12:02:45Z</time>
      </trkpt>
      <trkpt lat="43.94813" lon="5.23901">
        <ele>553.662</ele>
        <time>2014-05-18T12:03:01Z</time>
      </trkpt>
      <trkpt lat="43.94802" lon="5.23884">
        <ele>553.405</ele>
        <time>2014-05-18T12:03:15Z</time>
      </trkpt>
      <trkpt lat="43.9479" lon="5.23869">
        <ele>553.494</ele>
        <time>2014-05-18T12:03:30Z</time>
      </trkpt>
      <trkpt lat="43.94778" lon="5.23848">
        <ele>553.192</ele>
        <time>2014-05-18T12:03:46Z</time>
      </trkpt>
      <trkpt lat="43.94763" lon="5.23826">
        <ele>552.768</ele>
        <time>2014-05-18T12:04:05Z</time>
      </trkpt>
      <trkpt lat="43.94761" lon="5.23823">
        <ele>552.83</ele>
        <time>2014-05-18T12:04:10Z</time>
      </trkpt>
      <trkpt lat="43.94763" lon="5.23826">
        <ele>552.768</ele>
        <time>2014-05-18T12:04:17Z</time>
      </trkpt>
      <trkpt lat="43.94757" lon="5.23811">
        <ele>553.039</ele>
        <time>2014-05-18T12:04:24Z</time>
      </trkpt>
      <trkpt lat="43.94741" lon="5.2379">
        <ele>552.816</ele>
        <time>2014-05-18T12:04:42Z</time>
      </trkpt>
      <trkpt lat="43.94733" lon="5.23777">
        <ele>552.032</ele>
        <time>2014-05-18T12:04:56Z</time>
      </trkpt>
      <trkpt lat="43.94724" lon="5.23765">
        <ele>552.277</ele>
        <time>2014-05-18T12:05:04Z</time>
      </trkpt>
      <trkpt lat="43.94708" lon="5.2375">
        <ele>552.401</ele>
        <time>2014-05-18T12:05:19Z</time>
      </trkpt>
      <trkpt lat="43.94699" lon="5.23735">
        <ele>552.856</ele>
        <time>2014-05-18T12:05:31Z</time>
      </trkpt>
      <trkpt lat="43.94688" lon="5.23713">
        <ele>553.113</ele>
        <time>2014-05-18T12:05:48Z</time>
      </trkpt>
      <trkpt lat="43.94676" lon="5.23692">
        <ele>553.298</ele>
        <time>2014-05-18T12:06:03Z</time>
      </trkpt>
      <trkpt lat="43.94671" lon="5.23671">
        <ele>552.074</ele>
        <time>2014-05-18T12:06:17Z</time>
      </trkpt>
      <trkpt lat="43.94671" lon="5.23642">
        <ele>551.505</ele>
        <time>2014-05-18T12:06:34Z</time>
      </trkpt>
      <trkpt lat="43.94662" lon="5.23626">
        <ele>551.814</ele>
        <time>2014-05-18T12:06:46Z</time>
      </trkpt>
      <trkpt lat="43.94646" lon="5.23611">
        <ele>551.884</ele>
        <time>2014-05-18T12:06:58Z</time>
      </trkpt>
      <trkpt lat="43.94635" lon="5.23602">
        <ele>551.76</ele>
        <time>2014-05-18T12:07:08Z</time>
      </trkpt>
      <trkpt lat="43.94623" lon="5.23587">
        <ele>551.581</ele>
        <time>2014-05-18T12:07:22Z</time>
      </trkpt>
      <trkpt lat="43.94606" lon="5.23567">
        <ele>552.018</ele>
        <time>2014-05-18T12:07:38Z</time>
      </trkpt>
      <trkpt lat="43.94602" lon="5.2356">
        <ele>552.119</ele>
        <time>2014-05-18T12:07:47Z</time>
      </trkpt>
      <trkpt lat="43.94585" lon="5.23542">
        <ele>551.851</ele>
        <time>2014-05-18T12:08:04Z</time>
      </trkpt>
      <trkpt lat="43.94565" lon="5.23531">
        <ele>551.505</ele>
        <time>2014-05-18T12:08:21Z</time>
      </trkpt>
      <trkpt lat="43.94547" lon="5.23522">
        <ele>552.456</ele>
        <time>2014-05-18T12:08:36Z</time>
      </trkpt>
      <trkpt lat="43.94534" lon="5.23519">
        <ele>552.87</ele>
        <time>2014-05-18T12:08:47Z</time>
      </trkpt>
      <trkpt lat="43.94518" lon="5.23517">
        <ele>554.394</ele>
        <time>2014-05-18T12:09:02Z</time>
      </trkpt>
      <trkpt lat="43.94518" lon="5.23517">
        <ele>554.394</ele>
        <time>2014-05-18T12:09:11Z</time>
      </trkpt>
      <trkpt lat="43.94511" lon="5.23477">
        <ele>552.797</ele>
        <time>2014-05-18T12:09:51Z</time>
      </trkpt>
      <trkpt lat="43.94505" lon="5.23455">
        <ele>552.611</ele>
        <time>2014-05-18T12:10:07Z</time>
      </trkpt>
      <trkpt lat="43.945" lon="5.23425">
        <ele>552.198</ele>
        <time>2014-05-18T12:10:24Z</time>
      </trkpt>
      <trkpt lat="43.94494" lon="5.23402">
        <ele>552.908</ele>
        <time>2014-05-18T12:10:37Z</time>
      </trkpt>
      <trkpt lat="43.94498" lon="5.23377">
        <ele>552.997</ele>
        <time>2014-05-18T12:10:52Z</time>
      </trkpt>
      <trkpt lat="43.94494" lon="5.23352">
        <ele>553.182</ele>
        <time>2014-05-18T12:11:08Z</time>
      </trkpt>
      <trkpt lat="43.94474" lon="5.23329">
        <ele>552.145</ele>
        <time>2014-05-18T12:11:25Z</time>
      </trkpt>
      <trkpt lat="43.9446" lon="5.23317">
        <ele>552.601</ele>
        <time>2014-05-18T12:11:37Z</time>
      </trkpt>
      <trkpt lat="43.94453" lon="5.23303">
        <ele>553.517</ele>
        <time>2014-05-18T12:11:49Z</time>
      </trkpt>
      <trkpt lat="43.9444" lon="5.23281">
        <ele>554.033</ele>
        <time>2014-05-18T12:12:09Z</time>
      </trkpt>
      <trkpt lat="43.94426" lon="5.23257">
        <ele>555.344</ele>
        <time>2014-05-18T12:12:26Z</time>
      </trkpt>
      <trkpt lat="43.94415" lon="5.2324">
        <ele>555.652</ele>
        <time>2014-05-18T12:12:41Z</time>
      </trkpt>
      <trkpt lat="43.944" lon="5.23222">
        <ele>555.992</ele>
        <time>2014-05-18T12:12:55Z</time>
      </trkpt>
      <trkpt lat="43.94398" lon="5.23215">
        <ele>557.17</ele>
        <time>2014-05-18T12:13:06Z</time>
      </trkpt>
      <trkpt lat="43.944" lon="5.23215">
        <ele>557.347</ele>
        <time>2014-05-18T12:13:16Z</time>
      </trkpt>
      <trkpt lat="43.94387" lon="5.23203">
        <ele>557.846</ele>
        <time>2014-05-18T12:13:47Z</time>
      </trkpt>
      <trkpt lat="43.94371" lon="5.23188">
        <ele>558.121</ele>
        <time>2014-05-18T12:14:02Z</time>
      </trkpt>
      <trkpt lat="43.94357" lon="5.23181">
        <ele>558.333</ele>
        <time>2014-05-18T12:14:16Z</time>
      </trkpt>
      <trkpt lat="43.94336" lon="5.2317">
        <ele>558.599</ele>
        <time>2014-05-18T12:14:33Z</time>
      </trkpt>
      <trkpt lat="43.94327" lon="5.23166">
        <ele>558.891</ele>
        <time>2014-05-18T12:14:42Z</time>
      </trkpt>
      <trkpt lat="43.94315" lon="5.23158">
        <ele>559.068</ele>
        <time>2014-05-18T12:14:53Z</time>
      </trkpt>
      <trkpt lat="43.94296" lon="5.23149">
        <ele>558.367</ele>
        <time>2014-05-18T12:15:09Z</time>
      </trkpt>
      <trkpt lat="43.94277" lon="5.23129">
        <ele>558.078</ele>
        <time>2014-05-18T12:15:27Z</time>
      </trkpt>
      <trkpt lat="43.94267" lon="5.23115">
        <ele>558.187</ele>
        <time>2014-05-18T12:15:38Z</time>
      </trkpt>
      <trkpt lat="43.94258" lon="5.23095">
        <ele>558.105</ele>
        <time>2014-05-18T12:15:53Z</time>
      </trkpt>
      <trkpt lat="43.94249" lon="5.23074">
        <ele>558.263</ele>
        <time>2014-05-18T12:16:09Z</time>
      </trkpt>
      <trkpt lat="43.94237" lon="5.23049">
        <ele>559.77</ele>
        <time>2014-05-18T12:16:25Z</time>
      </trkpt>
      <trkpt lat="43.94219" lon="5.23033">
        <ele>560.391</ele>
        <time>2014-05-18T12:16:40Z</time>
      </trkpt>
      <trkpt lat="43.94207" lon="5.23025">
        <ele>560.634</ele>
        <time>2014-05-18T12:16:51Z</time>
      </trkpt>
      <trkpt lat="43.94194" lon="5.23014">
        <ele>561.372</ele>
        <time>2014-05-18T12:17:05Z</time>
      </trkpt>
      <trkpt lat="43.94168" lon="5.23001">
        <ele>562.816</ele>
        <time>2014-05-18T12:17:24Z</time>
      </trkpt>
      <trkpt lat="43.94153" lon="5.22992">
        <ele>563.893</ele>
        <time>2014-05-18T12:17:36Z</time>
      </trkpt>
      <trkpt lat="43.94131" lon="5.22979">
        <ele>563.422</ele>
        <time>2014-05-18T12:17:57Z</time>
      </trkpt>
      <trkpt lat="43.94108" lon="5.22964">
        <ele>562.602</ele>
        <time>2014-05-18T12:18:14Z</time>
      </trkpt>
      <trkpt lat="43.94102" lon="5.22956">
        <ele>562.347</ele>
        <time>2014-05-18T12:18:22Z</time>
      </trkpt>
      <trkpt lat="43.94103" lon="5.22958">
        <ele>562.901</ele>
        <time>2014-05-18T12:18:40Z</time>
      </trkpt>
      <trkpt lat="43.94093" lon="5.22949">
        <ele>562.088</ele>
        <time>2014-05-18T12:18:51Z</time>
      </trkpt>
      <trkpt lat="43.9408" lon="5.22932">
        <ele>561.611</ele>
        <time>2014-05-18T12:19:05Z</time>
      </trkpt>
      <trkpt lat="43.94068" lon="5.22919">
        <ele>561.981</ele>
        <time>2014-05-18T12:19:22Z</time>
      </trkpt>
      <trkpt lat="43.94058" lon="5.22893">
        <ele>561.936</ele>
        <time>2014-05-18T12:19:40Z</time>
      </trkpt>
      <trkpt lat="43.94052" lon="5.22868">
        <ele>560.779</ele>
        <time>2014-05-18T12:19:57Z</time>
      </trkpt>
      <trkpt lat="43.94052" lon="5.22848">
        <ele>559.647</ele>
        <time>2014-05-18T12:20:09Z</time>
      </trkpt>
      <trkpt lat="43.9405" lon="5.22827">
        <ele>559.367</ele>
        <time>2014-05-18T12:20:20Z</time>
      </trkpt>
      <trkpt lat="43.94041" lon="5.228">
        <ele>558.159</ele>
        <time>2014-05-18T12:20:34Z</time>
      </trkpt>
      <trkpt lat="43.94035" lon="5.22781">
        <ele>557.218</ele>
        <time>2014-05-18T12:20:47Z</time>
      </trkpt>
      <trkpt lat="43.94027" lon="5.22757">
        <ele>556.753</ele>
        <time>2014-05-18T12:21:02Z</time>
      </trkpt>
      <trkpt lat="43.94015" lon="5.22742">
        <ele>555.797</ele>
        <time>2014-05-18T12:21:16Z</time>
      </trkpt>
      <trkpt lat="43.93994" lon="5.22719">
        <ele>555.781</ele>
        <time>2014-05-18T12:21:36Z</time>
      </trkpt>
      <trkpt lat="43.93984" lon="5.22713">
        <ele>556.355</ele>
        <time>2014-05-18T12:21:45Z</time>
      </trkpt>
      <trkpt lat="43.93984" lon="5.22713">
        <ele>556.355</ele>
        <time>2014-05-18T12:21:53Z</time>
      </trkpt>
      <trkpt lat="43.93984" lon="5.22713">
        <ele>556.355</ele>
        <time>2014-05-18T12:21:54Z</time>
      </trkpt>
      <trkpt lat="43.93973" lon="5.22713">
        <ele>555.772</ele>
        <time>2014-05-18T12:22:02Z</time>
      </trkpt>
      <trkpt lat="43.93961" lon="5.22708">
        <ele>556.667</ele>
        <time>2014-05-18T12:22:10Z</time>
      </trkpt>
      <trkpt lat="43.93943" lon="5.22705">
        <ele>559.112</ele>
        <time>2014-05-18T12:22:27Z</time>
      </trkpt>
      <trkpt lat="43.93924" lon="5.22706">
        <ele>559.793</ele>
        <time>2014-05-18T12:22:42Z</time>
      </trkpt>
      <trkpt lat="43.93904" lon="5.22706">
        <ele>560.411</ele>
        <time>2014-05-18T12:22:58Z</time>
      </trkpt>
      <trkpt lat="43.93883" lon="5.22714">
        <ele>559.155</ele>
        <time>2014-05-18T12:23:18Z</time>
      </trkpt>
      <trkpt lat="43.93897" lon="5.22674">
        <ele>550.457</ele>
        <time>2014-05-18T12:25:19Z</time>
      </trkpt>
      <trkpt lat="43.93902" lon="5.22639">
        <ele>548.087</ele>
        <time>2014-05-18T12:25:37Z</time>
      </trkpt>
      <trkpt lat="43.93886" lon="5.22622">
        <ele>547.289</ele>
        <time>2014-05-18T12:25:49Z</time>
      </trkpt>
      <trkpt lat="43.93874" lon="5.2261">
        <ele>546.027</ele>
        <time>2014-05-18T12:25:58Z</time>
      </trkpt>
      <trkpt lat="43.93855" lon="5.22597">
        <ele>544.412</ele>
        <time>2014-05-18T12:26:14Z</time>
      </trkpt>
      <trkpt lat="43.93842" lon="5.22583">
        <ele>542.99</ele>
        <time>2014-05-18T12:26:27Z</time>
      </trkpt>
      <trkpt lat="43.93829" lon="5.22574">
        <ele>541.938</ele>
        <time>2014-05-18T12:26:39Z</time>
      </trkpt>
      <trkpt lat="43.93815" lon="5.22564">
        <ele>541.131</ele>
        <time>2014-05-18T12:26:50Z</time>
      </trkpt>
      <trkpt lat="43.93794" lon="5.22558">
        <ele>538.692</ele>
        <time>2014-05-18T12:27:07Z</time>
      </trkpt>
      <trkpt lat="43.93783" lon="5.22554">
        <ele>537.633</ele>
        <time>2014-05-18T12:27:16Z</time>
      </trkpt>
      <trkpt lat="43.9377" lon="5.22551">
        <ele>536.998</ele>
        <time>2014-05-18T12:27:27Z</time>
      </trkpt>
      <trkpt lat="43.93751" lon="5.22549">
        <ele>535.802</ele>
        <time>2014-05-18T12:27:43Z</time>
      </trkpt>
      <trkpt lat="43.93732" lon="5.22548">
        <ele>534.63</ele>
        <time>2014-05-18T12:28:00Z</time>
      </trkpt>
      <trkpt lat="43.93709" lon="5.22547">
        <ele>533.285</ele>
        <time>2014-05-18T12:28:16Z</time>
      </trkpt>
      <trkpt lat="43.93696" lon="5.2255">
        <ele>532.741</ele>
        <time>2014-05-18T12:28:26Z</time>
      </trkpt>
      <trkpt lat="43.93682" lon="5.22557">
        <ele>531.956</ele>
        <time>2014-05-18T12:28:39Z</time>
      </trkpt>
      <trkpt lat="43.93661" lon="5.22566">
        <ele>531.281</ele>
        <time>2014-05-18T12:28:55Z</time>
      </trkpt>
      <trkpt lat="43.93649" lon="5.22572">
        <ele>530.133</ele>
        <time>2014-05-18T12:29:06Z</time>
      </trkpt>
      <trkpt lat="43.93625" lon="5.2258">
        <ele>528.578</ele>
        <time>2014-05-18T12:29:26Z</time>
      </trkpt>
      <trkpt lat="43.93619" lon="5.22583">
        <ele>527.8</ele>
        <time>2014-05-18T12:29:34Z</time>
      </trkpt>
      <trkpt lat="43.93617" lon="5.22586">
        <ele>527.514</ele>
        <time>2014-05-18T12:29:44Z</time>
      </trkpt>
      <trkpt lat="43.93607" lon="5.226">
        <ele>526.519</ele>
        <time>2014-05-18T12:29:59Z</time>
      </trkpt>
      <trkpt lat="43.936" lon="5.22614">
        <ele>525.184</ele>
        <time>2014-05-18T12:30:11Z</time>
      </trkpt>
      <trkpt lat="43.936" lon="5.22614">
        <ele>525.184</ele>
        <time>2014-05-18T12:30:19Z</time>
      </trkpt>
      <trkpt lat="43.936" lon="5.22614">
        <ele>525.184</ele>
        <time>2014-05-18T12:30:20Z</time>
      </trkpt>
      <trkpt lat="43.93588" lon="5.22654">
        <ele>523.082</ele>
        <time>2014-05-18T12:30:53Z</time>
      </trkpt>
      <trkpt lat="43.93582" lon="5.22674">
        <ele>522.744</ele>
        <time>2014-05-18T12:31:05Z</time>
      </trkpt>
      <trkpt lat="43.93577" lon="5.22697">
        <ele>521.791</ele>
        <time>2014-05-18T12:31:19Z</time>
      </trkpt>
      <trkpt lat="43.93568" lon="5.22724">
        <ele>520.9</ele>
        <time>2014-05-18T12:31:34Z</time>
      </trkpt>
      <trkpt lat="43.93556" lon="5.22744">
        <ele>519.268</ele>
        <time>2014-05-18T12:31:51Z</time>
      </trkpt>
      <trkpt lat="43.93541" lon="5.22759">
        <ele>517.708</ele>
        <time>2014-05-18T12:32:07Z</time>
      </trkpt>
      <trkpt lat="43.93523" lon="5.22767">
        <ele>515.775</ele>
        <time>2014-05-18T12:32:21Z</time>
      </trkpt>
      <trkpt lat="43.93502" lon="5.22775">
        <ele>513.67</ele>
        <time>2014-05-18T12:32:37Z</time>
      </trkpt>
      <trkpt lat="43.93488" lon="5.22783">
        <ele>512.963</ele>
        <time>2014-05-18T12:32:48Z</time>
      </trkpt>
      <trkpt lat="43.93472" lon="5.2279">
        <ele>511.612</ele>
        <time>2014-05-18T12:33:02Z</time>
      </trkpt>
      <trkpt lat="43.93459" lon="5.22794">
        <ele>510.254</ele>
        <time>2014-05-18T12:33:11Z</time>
      </trkpt>
      <trkpt lat="43.93445" lon="5.22801">
        <ele>508.265</ele>
        <time>2014-05-18T12:33:23Z</time>
      </trkpt>
      <trkpt lat="43.93426" lon="5.22813">
        <ele>506.204</ele>
        <time>2014-05-18T12:33:39Z</time>
      </trkpt>
      <trkpt lat="43.93411" lon="5.22826">
        <ele>504.108</ele>
        <time>2014-05-18T12:33:52Z</time>
      </trkpt>
      <trkpt lat="43.93399" lon="5.22837">
        <ele>502.972</ele>
        <time>2014-05-18T12:34:03Z</time>
      </trkpt>
      <trkpt lat="43.93388" lon="5.22848">
        <ele>501.694</ele>
        <time>2014-05-18T12:34:15Z</time>
      </trkpt>
      <trkpt lat="43.93374" lon="5.22866">
        <ele>499.896</ele>
        <time>2014-05-18T12:34:31Z</time>
      </trkpt>
      <trkpt lat="43.93362" lon="5.2288">
        <ele>498.239</ele>
        <time>2014-05-18T12:34:42Z</time>
      </trkpt>
      <trkpt lat="43.9335" lon="5.22894">
        <ele>496.845</ele>
        <time>2014-05-18T12:34:54Z</time>
      </trkpt>
      <trkpt lat="43.93337" lon="5.22912">
        <ele>495.002</ele>
        <time>2014-05-18T12:35:10Z</time>
      </trkpt>
      <trkpt lat="43.93337" lon="5.22912">
        <ele>495.002</ele>
        <time>2014-05-18T12:37:39Z</time>
      </trkpt>
      <trkpt lat="43.93313" lon="5.22936">
        <ele>487.878</ele>
        <time>2014-05-18T12:37:46Z</time>
      </trkpt>
      <trkpt lat="43.93308" lon="5.22961">
        <ele>487.116</ele>
        <time>2014-05-18T12:38:03Z</time>
      </trkpt>
      <trkpt lat="43.9331" lon="5.22982">
        <ele>487.364</ele>
        <time>2014-05-18T12:38:18Z</time>
      </trkpt>
      <trkpt lat="43.93309" lon="5.23002">
        <ele>486.885</ele>
        <time>2014-05-18T12:38:30Z</time>
      </trkpt>
      <trkpt lat="43.93306" lon="5.23004">
        <ele>485.797</ele>
        <time>2014-05-18T12:38:40Z</time>
      </trkpt>
      <trkpt lat="43.93292" lon="5.23004">
        <ele>482.564</ele>
        <time>2014-05-18T12:39:55Z</time>
      </trkpt>
      <trkpt lat="43.9328" lon="5.23005">
        <ele>481.724</ele>
        <time>2014-05-18T12:40:05Z</time>
      </trkpt>
      <trkpt lat="43.93258" lon="5.23004">
        <ele>479.954</ele>
        <time>2014-05-18T12:40:23Z</time>
      </trkpt>
      <trkpt lat="43.93239" lon="5.23003">
        <ele>477.911</ele>
        <time>2014-05-18T12:40:37Z</time>
      </trkpt>
      <trkpt lat="43.9323" lon="5.23007">
        <ele>477.301</ele>
        <time>2014-05-18T12:40:45Z</time>
      </trkpt>
      <trkpt lat="43.93207" lon="5.23011">
        <ele>475.129</ele>
        <time>2014-05-18T12:41:02Z</time>
      </trkpt>
      <trkpt lat="43.93187" lon="5.23018">
        <ele>472.742</ele>
        <time>2014-05-18T12:41:23Z</time>
      </trkpt>
      <trkpt lat="43.93176" lon="5.23027">
        <ele>471.401</ele>
        <time>2014-05-18T12:41:34Z</time>
      </trkpt>
      <trkpt lat="43.9316" lon="5.23034">
        <ele>469.747</ele>
        <time>2014-05-18T12:41:47Z</time>
      </trkpt>
      <trkpt lat="43.93144" lon="5.23044">
        <ele>468.464</ele>
        <time>2014-05-18T12:42:01Z</time>
      </trkpt>
      <trkpt lat="43.93131" lon="5.23057">
        <ele>466.786</ele>
        <time>2014-05-18T12:42:16Z</time>
      </trkpt>
      <trkpt lat="43.93131" lon="5.23057">
        <ele>466.786</ele>
        <time>2014-05-18T12:42:23Z</time>
      </trkpt>
      <trkpt lat="43.93131" lon="5.23057">
        <ele>466.786</ele>
        <time>2014-05-18T12:42:27Z</time>
      </trkpt>
      <trkpt lat="43.93136" lon="5.23102">
        <ele>461.881</ele>
        <time>2014-05-18T12:43:26Z</time>
      </trkpt>
      <trkpt lat="43.93145" lon="5.23124">
        <ele>461.597</ele>
        <time>2014-05-18T12:43:41Z</time>
      </trkpt>
      <trkpt lat="43.9315" lon="5.23153">
        <ele>461.016</ele>
        <time>2014-05-18T12:43:58Z</time>
      </trkpt>
      <trkpt lat="43.93152" lon="5.23172">
        <ele>460.578</ele>
        <time>2014-05-18T12:44:12Z</time>
      </trkpt>
      <trkpt lat="43.93141" lon="5.23196">
        <ele>458.488</ele>
        <time>2014-05-18T12:44:30Z</time>
      </trkpt>
      <trkpt lat="43.93132" lon="5.23211">
        <ele>456.977</ele>
        <time>2014-05-18T12:44:43Z</time>
      </trkpt>
      <trkpt lat="43.93137" lon="5.23235">
        <ele>455.516</ele>
        <time>2014-05-18T12:44:55Z</time>
      </trkpt>
      <trkpt lat="43.93146" lon="5.23257">
        <ele>453.523</ele>
        <time>2014-05-18T12:45:09Z</time>
      </trkpt>
      <trkpt lat="43.93138" lon="5.23277">
        <ele>450.578</ele>
        <time>2014-05-18T12:45:24Z</time>
      </trkpt>
      <trkpt lat="43.93138" lon="5.23277">
        <ele>450.578</ele>
        <time>2014-05-18T12:45:31Z</time>
      </trkpt>
      <trkpt lat="43.93126" lon="5.23296">
        <ele>447.232</ele>
        <time>2014-05-18T12:45:43Z</time>
      </trkpt>
      <trkpt lat="43.93113" lon="5.23302">
        <ele>444.693</ele>
        <time>2014-05-18T12:45:54Z</time>
      </trkpt>
      <trkpt lat="43.93099" lon="5.23317">
        <ele>442.272</ele>
        <time>2014-05-18T12:46:06Z</time>
      </trkpt>
      <trkpt lat="43.93084" lon="5.23333">
        <ele>440.583</ele>
        <time>2014-05-18T12:46:20Z</time>
      </trkpt>
      <trkpt lat="43.93073" lon="5.23352">
        <ele>437.979</ele>
        <time>2014-05-18T12:46:34Z</time>
      </trkpt>
      <trkpt lat="43.93064" lon="5.2337">
        <ele>436.265</ele>
        <time>2014-05-18T12:46:46Z</time>
      </trkpt>
      <trkpt lat="43.93052" lon="5.2339">
        <ele>434.914</ele>
        <time>2014-05-18T12:47:01Z</time>
      </trkpt>
      <trkpt lat="43.93042" lon="5.23414">
        <ele>432.6</ele>
        <time>2014-05-18T12:47:17Z</time>
      </trkpt>
      <trkpt lat="43.93038" lon="5.23429">
        <ele>431.236</ele>
        <time>2014-05-18T12:47:28Z</time>
      </trkpt>
      <trkpt lat="43.93021" lon="5.23447">
        <ele>428.864</ele>
        <time>2014-05-18T12:47:43Z</time>
      </trkpt>
      <trkpt lat="43.93004" lon="5.23463">
        <ele>425.981</ele>
        <time>2014-05-18T12:47:58Z</time>
      </trkpt>
      <trkpt lat="43.92991" lon="5.23473">
        <ele>423.292</ele>
        <time>2014-05-18T12:48:11Z</time>
      </trkpt>
      <trkpt lat="43.9297" lon="5.2349">
        <ele>419.224</ele>
        <time>2014-05-18T12:48:29Z</time>
      </trkpt>
      <trkpt lat="43.92951" lon="5.23507">
        <ele>415.552</ele>
        <time>2014-05-18T12:48:46Z</time>
      </trkpt>
      <trkpt lat="43.92933" lon="5.23513">
        <ele>413.941</ele>
        <time>2014-05-18T12:49:01Z</time>
      </trkpt>
      <trkpt lat="43.92918" lon="5.2353">
        <ele>412.219</ele>
        <time>2014-05-18T12:49:18Z</time>
      </trkpt>
      <trkpt lat="43.92897" lon="5.23553">
        <ele>409.87</ele>
        <time>2014-05-18T12:49:38Z</time>
      </trkpt>
      <trkpt lat="43.9288" lon="5.23565">
        <ele>407.923</ele>
        <time>2014-05-18T12:49:53Z</time>
      </trkpt>
      <trkpt lat="43.92866" lon="5.23577">
        <ele>406.153</ele>
        <time>2014-05-18T12:50:05Z</time>
      </trkpt>
      <trkpt lat="43.92852" lon="5.23589">
        <ele>402.991</ele>
        <time>2014-05-18T12:50:21Z</time>
      </trkpt>
      <trkpt lat="43.92835" lon="5.23605">
        <ele>400.845</ele>
        <time>2014-05-18T12:50:37Z</time>
      </trkpt>
      <trkpt lat="43.92824" lon="5.23632">
        <ele>398.995</ele>
        <time>2014-05-18T12:50:55Z</time>
      </trkpt>
      <trkpt lat="43.9281" lon="5.23657">
        <ele>396.277</ele>
        <time>2014-05-18T12:51:14Z</time>
      </trkpt>
      <trkpt lat="43.92792" lon="5.23673">
        <ele>394.851</ele>
        <time>2014-05-18T12:51:31Z</time>
      </trkpt>
      <trkpt lat="43.92784" lon="5.23683">
        <ele>393.612</ele>
        <time>2014-05-18T12:51:41Z</time>
      </trkpt>
      <trkpt lat="43.92782" lon="5.23689">
        <ele>392.713</ele>
        <time>2014-05-18T12:51:51Z</time>
      </trkpt>
      <trkpt lat="43.92771" lon="5.23705">
        <ele>389.046</ele>
        <time>2014-05-18T12:53:07Z</time>
      </trkpt>
      <trkpt lat="43.92759" lon="5.23723">
        <ele>387.417</ele>
        <time>2014-05-18T12:53:22Z</time>
      </trkpt>
      <trkpt lat="43.9276" lon="5.23752">
        <ele>386.31</ele>
        <time>2014-05-18T12:53:41Z</time>
      </trkpt>
      <trkpt lat="43.9276" lon="5.23774">
        <ele>386.016</ele>
        <time>2014-05-18T12:53:54Z</time>
      </trkpt>
      <trkpt lat="43.92761" lon="5.23806">
        <ele>385.454</ele>
        <time>2014-05-18T12:54:09Z</time>
      </trkpt>
      <trkpt lat="43.92764" lon="5.23829">
        <ele>384.047</ele>
        <time>2014-05-18T12:54:23Z</time>
      </trkpt>
      <trkpt lat="43.9276" lon="5.23851">
        <ele>383.344</ele>
        <time>2014-05-18T12:54:38Z</time>
      </trkpt>
      <trkpt lat="43.9275" lon="5.23877">
        <ele>382.058</ele>
        <time>2014-05-18T12:54:56Z</time>
      </trkpt>
      <trkpt lat="43.92736" lon="5.23894">
        <ele>380.376</ele>
        <time>2014-05-18T12:55:12Z</time>
      </trkpt>
      <trkpt lat="43.9273" lon="5.23924">
        <ele>378.592</ele>
        <time>2014-05-18T12:55:29Z</time>
      </trkpt>
      <trkpt lat="43.92728" lon="5.23944">
        <ele>376.055</ele>
        <time>2014-05-18T12:55:44Z</time>
      </trkpt>
      <trkpt lat="43.92723" lon="5.23967">
        <ele>373.796</ele>
        <time>2014-05-18T12:55:58Z</time>
      </trkpt>
      <trkpt lat="43.92715" lon="5.23992">
        <ele>372.986</ele>
        <time>2014-05-18T12:56:15Z</time>
      </trkpt>
      <trkpt lat="43.92711" lon="5.24012">
        <ele>371.841</ele>
        <time>2014-05-18T12:56:25Z</time>
      </trkpt>
      <trkpt lat="43.9271" lon="5.24031">
        <ele>371.333</ele>
        <time>2014-05-18T12:56:37Z</time>
      </trkpt>
      <trkpt lat="43.92711" lon="5.24044">
        <ele>370.527</ele>
        <time>2014-05-18T12:56:45Z</time>
      </trkpt>
      <trkpt lat="43.92711" lon="5.24063">
        <ele>369.621</ele>
        <time>2014-05-18T12:56:57Z</time>
      </trkpt>
      <trkpt lat="43.92701" lon="5.24076">
        <ele>368.557</ele>
        <time>2014-05-18T12:57:09Z</time>
      </trkpt>
      <trkpt lat="43.92689" lon="5.24089">
        <ele>367.176</ele>
        <time>2014-05-18T12:57:19Z</time>
      </trkpt>
      <trkpt lat="43.92682" lon="5.24108">
        <ele>365.073</ele>
        <time>2014-05-18T12:57:33Z</time>
      </trkpt>
      <trkpt lat="43.92689" lon="5.24134">
        <ele>364.247</ele>
        <time>2014-05-18T12:57:47Z</time>
      </trkpt>
      <trkpt lat="43.92687" lon="5.24158">
        <ele>364.054</ele>
        <time>2014-05-18T12:58:02Z</time>
      </trkpt>
      <trkpt lat="43.92682" lon="5.2418">
        <ele>363.34</ele>
        <time>2014-05-18T12:58:16Z</time>
      </trkpt>
      <trkpt lat="43.92674" lon="5.24204">
        <ele>362.95</ele>
        <time>2014-05-18T12:58:29Z</time>
      </trkpt>
      <trkpt lat="43.9267" lon="5.24229">
        <ele>362.529</ele>
        <time>2014-05-18T12:58:43Z</time>
      </trkpt>
      <trkpt lat="43.92669" lon="5.24248">
        <ele>361.758</ele>
        <time>2014-05-18T12:58:56Z</time>
      </trkpt>
      <trkpt lat="43.92671" lon="5.24269">
        <ele>361.409</ele>
        <time>2014-05-18T12:59:05Z</time>
      </trkpt>
      <trkpt lat="43.92667" lon="5.24272">
        <ele>360.074</ele>
        <time>2014-05-18T12:59:16Z</time>
      </trkpt>
      <trkpt lat="43.9267" lon="5.24304">
        <ele>356.515</ele>
        <time>2014-05-18T13:01:01Z</time>
      </trkpt>
      <trkpt lat="43.92673" lon="5.24323">
        <ele>356.989</ele>
        <time>2014-05-18T13:01:15Z</time>
      </trkpt>
      <trkpt lat="43.92664" lon="5.24344">
        <ele>356.577</ele>
        <time>2014-05-18T13:01:33Z</time>
      </trkpt>
      <trkpt lat="43.92657" lon="5.24368">
        <ele>355.492</ele>
        <time>2014-05-18T13:01:48Z</time>
      </trkpt>
      <trkpt lat="43.92648" lon="5.24387">
        <ele>354.826</ele>
        <time>2014-05-18T13:02:01Z</time>
      </trkpt>
      <trkpt lat="43.92639" lon="5.24411">
        <ele>353.454</ele>
        <time>2014-05-18T13:02:17Z</time>
      </trkpt>
      <trkpt lat="43.92637" lon="5.24424">
        <ele>352.776</ele>
        <time>2014-05-18T13:02:25Z</time>
      </trkpt>
      <trkpt lat="43.92636" lon="5.24437">
        <ele>350.909</ele>
        <time>2014-05-18T13:02:38Z</time>
      </trkpt>
      <trkpt lat="43.92634" lon="5.24468">
        <ele>349.06</ele>
        <time>2014-05-18T13:02:58Z</time>
      </trkpt>
      <trkpt lat="43.92636" lon="5.24482">
        <ele>348.531</ele>
        <time>2014-05-18T13:03:07Z</time>
      </trkpt>
      <trkpt lat="43.92628" lon="5.24512">
        <ele>347.673</ele>
        <time>2014-05-18T13:03:24Z</time>
      </trkpt>
      <trkpt lat="43.92633" lon="5.2454">
        <ele>346.165</ele>
        <time>2014-05-18T13:03:40Z</time>
      </trkpt>
      <trkpt lat="43.92627" lon="5.24572">
        <ele>344.47</ele>
        <time>2014-05-18T13:03:57Z</time>
      </trkpt>
      <trkpt lat="43.92629" lon="5.24595">
        <ele>343.129</ele>
        <time>2014-05-18T13:04:12Z</time>
      </trkpt>
      <trkpt lat="43.92627" lon="5.24613">
        <ele>342.055</ele>
        <time>2014-05-18T13:04:23Z</time>
      </trkpt>
      <trkpt lat="43.92629" lon="5.24643">
        <ele>340.345</ele>
        <time>2014-05-18T13:04:37Z</time>
      </trkpt>
      <trkpt lat="43.9263" lon="5.24661">
        <ele>338.948</ele>
        <time>2014-05-18T13:04:48Z</time>
      </trkpt>
      <trkpt lat="43.92628" lon="5.24682">
        <ele>337.898</ele>
        <time>2014-05-18T13:05:04Z</time>
      </trkpt>
      <trkpt lat="43.92625" lon="5.24697">
        <ele>337.31</ele>
        <time>2014-05-18T13:05:16Z</time>
      </trkpt>
      <trkpt lat="43.92623" lon="5.24714">
        <ele>337.005</ele>
        <time>2014-05-18T13:05:26Z</time>
      </trkpt>
      <trkpt lat="43.92623" lon="5.24737">
        <ele>336.503</ele>
        <time>2014-05-18T13:05:41Z</time>
      </trkpt>
      <trkpt lat="43.92623" lon="5.24758">
        <ele>336.123</ele>
        <time>2014-05-18T13:05:49Z</time>
      </trkpt>
      <trkpt lat="43.92621" lon="5.24772">
        <ele>335.606</ele>
        <time>2014-05-18T13:06:01Z</time>
      </trkpt>
      <trkpt lat="43.92623" lon="5.24789">
        <ele>334.752</ele>
        <time>2014-05-18T13:06:13Z</time>
      </trkpt>
      <trkpt lat="43.92628" lon="5.24817">
        <ele>333.948</ele>
        <time>2014-05-18T13:06:29Z</time>
      </trkpt>
      <trkpt lat="43.92636" lon="5.24846">
        <ele>332.288</ele>
        <time>2014-05-18T13:06:49Z</time>
      </trkpt>
      <trkpt lat="43.9264" lon="5.24866">
        <ele>331.94</ele>
        <time>2014-05-18T13:07:02Z</time>
      </trkpt>
      <trkpt lat="43.92644" lon="5.24875">
        <ele>331.481</ele>
        <time>2014-05-18T13:07:10Z</time>
      </trkpt>
      <trkpt lat="43.92653" lon="5.24902">
        <ele>331.29</ele>
        <time>2014-05-18T13:07:27Z</time>
      </trkpt>
      <trkpt lat="43.92658" lon="5.24923">
        <ele>330.482</ele>
        <time>2014-05-18T13:07:44Z</time>
      </trkpt>
      <trkpt lat="43.92669" lon="5.24957">
        <ele>327.875</ele>
        <time>2014-05-18T13:08:20Z</time>
      </trkpt>
      <trkpt lat="43.92669" lon="5.24977">
        <ele>327.481</ele>
        <time>2014-05-18T13:08:31Z</time>
      </trkpt>
      <trkpt lat="43.92666" lon="5.24992">
        <ele>327.414</ele>
        <time>2014-05-18T13:08:41Z</time>
      </trkpt>
      <trkpt lat="43.92664" lon="5.2501">
        <ele>327.178</ele>
        <time>2014-05-18T13:08:54Z</time>
      </trkpt>
      <trkpt lat="43.92664" lon="5.25014">
        <ele>326.569</ele>
        <time>2014-05-18T13:08:58Z</time>
      </trkpt>
      <trkpt lat="43.92661" lon="5.25028">
        <ele>325.047</ele>
        <time>2014-05-18T13:09:12Z</time>
      </trkpt>
      <trkpt lat="43.92662" lon="5.25051">
        <ele>324.54</ele>
        <time>2014-05-18T13:09:25Z</time>
      </trkpt>
      <trkpt lat="43.92666" lon="5.25072">
        <ele>323.268</ele>
        <time>2014-05-18T13:09:37Z</time>
      </trkpt>
      <trkpt lat="43.92672" lon="5.25091">
        <ele>322.984</ele>
        <time>2014-05-18T13:09:55Z</time>
      </trkpt>
      <trkpt lat="43.92641" lon="5.25097">
        <ele>326.455</ele>
        <time>2014-05-18T13:11:00Z</time>
      </trkpt>
      <trkpt lat="43.92633" lon="5.25124">
        <ele>322.034</ele>
        <time>2014-05-18T13:11:04Z</time>
      </trkpt>
      <trkpt lat="43.92636" lon="5.25128">
        <ele>321.853</ele>
        <time>2014-05-18T13:11:11Z</time>
      </trkpt>
      <trkpt lat="43.92614" lon="5.25152">
        <ele>321.152</ele>
        <time>2014-05-18T13:12:20Z</time>
      </trkpt>
      <trkpt lat="43.92605" lon="5.25177">
        <ele>320.776</ele>
        <time>2014-05-18T13:12:33Z</time>
      </trkpt>
      <trkpt lat="43.92604" lon="5.25181">
        <ele>319.072</ele>
        <time>2014-05-18T13:12:41Z</time>
      </trkpt>
      <trkpt lat="43.92586" lon="5.25154">
        <ele>314.519</ele>
        <time>2014-05-18T13:15:42Z</time>
      </trkpt>
      <trkpt lat="43.92586" lon="5.25154">
        <ele>314.519</ele>
        <time>2014-05-18T13:17:48Z</time>
      </trkpt>
      <trkpt lat="43.92569" lon="5.25177">
        <ele>305.744</ele>
        <time>2014-05-18T13:18:00Z</time>
      </trkpt>
      <trkpt lat="43.92583" lon="5.2519">
        <ele>306.005</ele>
        <time>2014-05-18T13:18:19Z</time>
      </trkpt>
      <trkpt lat="43.92583" lon="5.2519">
        <ele>306.005</ele>
        <time>2014-05-18T13:20:22Z</time>
      </trkpt>
      <trkpt lat="43.92559" lon="5.25165">
        <ele>297.655</ele>
        <time>2014-05-18T13:20:38Z</time>
      </trkpt>
      <trkpt lat="43.92559" lon="5.25165">
        <ele>297.655</ele>
        <time>2014-05-18T13:20:47Z</time>
      </trkpt>
      <trkpt lat="43.92542" lon="5.25142">
        <ele>292.045</ele>
        <time>2014-05-18T13:30:13Z</time>
      </trkpt>
      <trkpt lat="43.92536" lon="5.25118">
        <ele>291.344</ele>
        <time>2014-05-18T13:30:29Z</time>
      </trkpt>
      <trkpt lat="43.92528" lon="5.25099">
        <ele>290.793</ele>
        <time>2014-05-18T13:30:44Z</time>
      </trkpt>
      <trkpt lat="43.92528" lon="5.25099">
        <ele>290.793</ele>
        <time>2014-05-18T13:30:52Z</time>
      </trkpt>
      <trkpt lat="43.92528" lon="5.25099">
        <ele>290.793</ele>
        <time>2014-05-18T13:30:54Z</time>
      </trkpt>
      <trkpt lat="43.92516" lon="5.25086">
        <ele>289.515</ele>
        <time>2014-05-18T13:31:09Z</time>
      </trkpt>
      <trkpt lat="43.92505" lon="5.25069">
        <ele>288.363</ele>
        <time>2014-05-18T13:31:27Z</time>
      </trkpt>
      <trkpt lat="43.92495" lon="5.2505">
        <ele>286.665</ele>
        <time>2014-05-18T13:31:45Z</time>
      </trkpt>
      <trkpt lat="43.92482" lon="5.25031">
        <ele>284.681</ele>
        <time>2014-05-18T13:32:02Z</time>
      </trkpt>
      <trkpt lat="43.92471" lon="5.25014">
        <ele>283.66</ele>
        <time>2014-05-18T13:32:18Z</time>
      </trkpt>
      <trkpt lat="43.92451" lon="5.24994">
        <ele>282.316</ele>
        <time>2014-05-18T13:32:39Z</time>
      </trkpt>
      <trkpt lat="43.92441" lon="5.24974">
        <ele>281.454</ele>
        <time>2014-05-18T13:32:56Z</time>
      </trkpt>
      <trkpt lat="43.92429" lon="5.2496">
        <ele>280.751</ele>
        <time>2014-05-18T13:33:07Z</time>
      </trkpt>
      <trkpt lat="43.92416" lon="5.24952">
        <ele>280.224</ele>
        <time>2014-05-18T13:33:19Z</time>
      </trkpt>
      <trkpt lat="43.92402" lon="5.2494">
        <ele>279.544</ele>
        <time>2014-05-18T13:33:31Z</time>
      </trkpt>
      <trkpt lat="43.92392" lon="5.2493">
        <ele>278.575</ele>
        <time>2014-05-18T13:33:45Z</time>
      </trkpt>
      <trkpt lat="43.92371" lon="5.24906">
        <ele>278.005</ele>
        <time>2014-05-18T13:34:19Z</time>
      </trkpt>
      <trkpt lat="43.92363" lon="5.2488">
        <ele>278.722</ele>
        <time>2014-05-18T13:34:38Z</time>
      </trkpt>
      <trkpt lat="43.92358" lon="5.24855">
        <ele>278.752</ele>
        <time>2014-05-18T13:34:52Z</time>
      </trkpt>
      <trkpt lat="43.92356" lon="5.2484">
        <ele>278.926</ele>
        <time>2014-05-18T13:35:02Z</time>
      </trkpt>
      <trkpt lat="43.92347" lon="5.24807">
        <ele>278.808</ele>
        <time>2014-05-18T13:35:21Z</time>
      </trkpt>
      <trkpt lat="43.92339" lon="5.24791">
        <ele>278.977</ele>
        <time>2014-05-18T13:35:33Z</time>
      </trkpt>
      <trkpt lat="43.9233" lon="5.24772">
        <ele>278.822</ele>
        <time>2014-05-18T13:35:49Z</time>
      </trkpt>
      <trkpt lat="43.92325" lon="5.24757">
        <ele>278.743</ele>
        <time>2014-05-18T13:35:59Z</time>
      </trkpt>
      <trkpt lat="43.92324" lon="5.24753">
        <ele>278.745</ele>
        <time>2014-05-18T13:36:03Z</time>
      </trkpt>
      <trkpt lat="43.92325" lon="5.24757">
        <ele>278.743</ele>
        <time>2014-05-18T13:36:12Z</time>
      </trkpt>
      <trkpt lat="43.92309" lon="5.24726">
        <ele>276.811</ele>
        <time>2014-05-18T13:37:48Z</time>
      </trkpt>
      <trkpt lat="43.92297" lon="5.2471">
        <ele>276.354</ele>
        <time>2014-05-18T13:38:02Z</time>
      </trkpt>
      <trkpt lat="43.92288" lon="5.24691">
        <ele>275.531</ele>
        <time>2014-05-18T13:38:17Z</time>
      </trkpt>
      <trkpt lat="43.92273" lon="5.24674">
        <ele>274.802</ele>
        <time>2014-05-18T13:38:32Z</time>
      </trkpt>
      <trkpt lat="43.92259" lon="5.24664">
        <ele>273.871</ele>
        <time>2014-05-18T13:38:43Z</time>
      </trkpt>
      <trkpt lat="43.92247" lon="5.24656">
        <ele>273.055</ele>
        <time>2014-05-18T13:38:55Z</time>
      </trkpt>
      <trkpt lat="43.92227" lon="5.24643">
        <ele>271.835</ele>
        <time>2014-05-18T13:39:12Z</time>
      </trkpt>
      <trkpt lat="43.92209" lon="5.24629">
        <ele>269.694</ele>
        <time>2014-05-18T13:39:29Z</time>
      </trkpt>
      <trkpt lat="43.92194" lon="5.24619">
        <ele>268.656</ele>
        <time>2014-05-18T13:39:42Z</time>
      </trkpt>
      <trkpt lat="43.92184" lon="5.24612">
        <ele>267.148</ele>
        <time>2014-05-18T13:39:50Z</time>
      </trkpt>
      <trkpt lat="43.92184" lon="5.24611">
        <ele>266.761</ele>
        <time>2014-05-18T13:39:58Z</time>
      </trkpt>
      <trkpt lat="43.92161" lon="5.24585">
        <ele>263.824</ele>
        <time>2014-05-18T13:40:34Z</time>
      </trkpt>
      <trkpt lat="43.92156" lon="5.24577">
        <ele>262.875</ele>
        <time>2014-05-18T13:40:41Z</time>
      </trkpt>
      <trkpt lat="43.9215" lon="5.24564">
        <ele>262.579</ele>
        <time>2014-05-18T13:40:54Z</time>
      </trkpt>
      <trkpt lat="43.92145" lon="5.24537">
        <ele>261.422</ele>
        <time>2014-05-18T13:41:09Z</time>
      </trkpt>
      <trkpt lat="43.92134" lon="5.2451">
        <ele>259.804</ele>
        <time>2014-05-18T13:41:26Z</time>
      </trkpt>
      <trkpt lat="43.92127" lon="5.24489">
        <ele>258.851</ele>
        <time>2014-05-18T13:41:39Z</time>
      </trkpt>
      <trkpt lat="43.92119" lon="5.24466">
        <ele>258.535</ele>
        <time>2014-05-18T13:41:53Z</time>
      </trkpt>
      <trkpt lat="43.9211" lon="5.24444">
        <ele>257.677</ele>
        <time>2014-05-18T13:42:07Z</time>
      </trkpt>
      <trkpt lat="43.92101" lon="5.24424">
        <ele>256.648</ele>
        <time>2014-05-18T13:42:20Z</time>
      </trkpt>
      <trkpt lat="43.92093" lon="5.24412">
        <ele>256.271</ele>
        <time>2014-05-18T13:42:30Z</time>
      </trkpt>
      <trkpt lat="43.92093" lon="5.24412">
        <ele>256.271</ele>
        <time>2014-05-18T13:42:38Z</time>
      </trkpt>
      <trkpt lat="43.92093" lon="5.24412">
        <ele>256.271</ele>
        <time>2014-05-18T13:42:40Z</time>
      </trkpt>
      <trkpt lat="43.92088" lon="5.24396">
        <ele>256.142</ele>
        <time>2014-05-18T13:43:09Z</time>
      </trkpt>
      <trkpt lat="43.92071" lon="5.2438">
        <ele>256.221</ele>
        <time>2014-05-18T13:43:28Z</time>
      </trkpt>
      <trkpt lat="43.92062" lon="5.24371">
        <ele>255.984</ele>
        <time>2014-05-18T13:43:36Z</time>
      </trkpt>
      <trkpt lat="43.92053" lon="5.2436">
        <ele>255.712</ele>
        <time>2014-05-18T13:43:46Z</time>
      </trkpt>
      <trkpt lat="43.9205" lon="5.24355">
        <ele>255.578</ele>
        <time>2014-05-18T13:43:51Z</time>
      </trkpt>
      <trkpt lat="43.92047" lon="5.24355">
        <ele>255.774</ele>
        <time>2014-05-18T13:44:02Z</time>
      </trkpt>
      <trkpt lat="43.92036" lon="5.2434">
        <ele>253.804</ele>
        <time>2014-05-18T13:44:32Z</time>
      </trkpt>
      <trkpt lat="43.92022" lon="5.24319">
        <ele>253.525</ele>
        <time>2014-05-18T13:44:54Z</time>
      </trkpt>
      <trkpt lat="43.92012" lon="5.24302">
        <ele>253.151</ele>
        <time>2014-05-18T13:45:08Z</time>
      </trkpt>
      <trkpt lat="43.92001" lon="5.24282">
        <ele>252.381</ele>
        <time>2014-05-18T13:45:24Z</time>
      </trkpt>
      <trkpt lat="43.91988" lon="5.24259">
        <ele>251.784</ele>
        <time>2014-05-18T13:45:41Z</time>
      </trkpt>
      <trkpt lat="43.91979" lon="5.24246">
        <ele>250.536</ele>
        <time>2014-05-18T13:45:50Z</time>
      </trkpt>
      <trkpt lat="43.91974" lon="5.24236">
        <ele>250.832</ele>
        <time>2014-05-18T13:46:00Z</time>
      </trkpt>
      <trkpt lat="43.9196" lon="5.24212">
        <ele>251.846</ele>
        <time>2014-05-18T13:46:17Z</time>
      </trkpt>
      <trkpt lat="43.91951" lon="5.24191">
        <ele>252.784</ele>
        <time>2014-05-18T13:46:31Z</time>
      </trkpt>
      <trkpt lat="43.91939" lon="5.24167">
        <ele>253.367</ele>
        <time>2014-05-18T13:46:48Z</time>
      </trkpt>
      <trkpt lat="43.91925" lon="5.24144">
        <ele>253.32</ele>
        <time>2014-05-18T13:47:07Z</time>
      </trkpt>
      <trkpt lat="43.91912" lon="5.24118">
        <ele>253.393</ele>
        <time>2014-05-18T13:47:25Z</time>
      </trkpt>
      <trkpt lat="43.91905" lon="5.24097">
        <ele>253.598</ele>
        <time>2014-05-18T13:47:40Z</time>
      </trkpt>
      <trkpt lat="43.91902" lon="5.24073">
        <ele>254.413</ele>
        <time>2014-05-18T13:47:55Z</time>
      </trkpt>
      <trkpt lat="43.91901" lon="5.24053">
        <ele>254.558</ele>
        <time>2014-05-18T13:48:08Z</time>
      </trkpt>
      <trkpt lat="43.919" lon="5.24031">
        <ele>254.243</ele>
        <time>2014-05-18T13:48:23Z</time>
      </trkpt>
      <trkpt lat="43.9189" lon="5.24">
        <ele>253.953</ele>
        <time>2014-05-18T13:48:42Z</time>
      </trkpt>
      <trkpt lat="43.91885" lon="5.23976">
        <ele>253.166</ele>
        <time>2014-05-18T13:49:00Z</time>
      </trkpt>
      <trkpt lat="43.91874" lon="5.23952">
        <ele>253.694</ele>
        <time>2014-05-18T13:49:14Z</time>
      </trkpt>
      <trkpt lat="43.9187" lon="5.23935">
        <ele>254.415</ele>
        <time>2014-05-18T13:49:25Z</time>
      </trkpt>
      <trkpt lat="43.91862" lon="5.23915">
        <ele>254.373</ele>
        <time>2014-05-18T13:49:38Z</time>
      </trkpt>
      <trkpt lat="43.91861" lon="5.23899">
        <ele>255.133</ele>
        <time>2014-05-18T13:49:51Z</time>
      </trkpt>
      <trkpt lat="43.91851" lon="5.23873">
        <ele>255.232</ele>
        <time>2014-05-18T13:50:08Z</time>
      </trkpt>
      <trkpt lat="43.91848" lon="5.23841">
        <ele>255.332</ele>
        <time>2014-05-18T13:50:24Z</time>
      </trkpt>
      <trkpt lat="43.9184" lon="5.23824">
        <ele>255.743</ele>
        <time>2014-05-18T13:50:35Z</time>
      </trkpt>
      <trkpt lat="43.91833" lon="5.23804">
        <ele>255.507</ele>
        <time>2014-05-18T13:50:48Z</time>
      </trkpt>
      <trkpt lat="43.91824" lon="5.23781">
        <ele>255.605</ele>
        <time>2014-05-18T13:51:04Z</time>
      </trkpt>
      <trkpt lat="43.91815" lon="5.2376">
        <ele>254.97</ele>
        <time>2014-05-18T13:51:18Z</time>
      </trkpt>
      <trkpt lat="43.91803" lon="5.23741">
        <ele>254.65</ele>
        <time>2014-05-18T13:51:31Z</time>
      </trkpt>
      <trkpt lat="43.91792" lon="5.23725">
        <ele>254.146</ele>
        <time>2014-05-18T13:51:42Z</time>
      </trkpt>
      <trkpt lat="43.91788" lon="5.2371">
        <ele>253.846</ele>
        <time>2014-05-18T13:51:53Z</time>
      </trkpt>
      <trkpt lat="43.91781" lon="5.23696">
        <ele>254.479</ele>
        <time>2014-05-18T13:52:03Z</time>
      </trkpt>
      <trkpt lat="43.91774" lon="5.23666">
        <ele>255.886</ele>
        <time>2014-05-18T13:52:18Z</time>
      </trkpt>
      <trkpt lat="43.91768" lon="5.23652">
        <ele>255.908</ele>
        <time>2014-05-18T13:52:27Z</time>
      </trkpt>
      <trkpt lat="43.91763" lon="5.23636">
        <ele>256.244</ele>
        <time>2014-05-18T13:52:43Z</time>
      </trkpt>
      <trkpt lat="43.91759" lon="5.23623">
        <ele>255.944</ele>
        <time>2014-05-18T13:52:51Z</time>
      </trkpt>
      <trkpt lat="43.91757" lon="5.23617">
        <ele>255.831</ele>
        <time>2014-05-18T13:52:56Z</time>
      </trkpt>
      <trkpt lat="43.91753" lon="5.23605">
        <ele>255.871</ele>
        <time>2014-05-18T13:53:05Z</time>
      </trkpt>
      <trkpt lat="43.91741" lon="5.23576">
        <ele>255.807</ele>
        <time>2014-05-18T13:53:19Z</time>
      </trkpt>
      <trkpt lat="43.9173" lon="5.23555">
        <ele>254.579</ele>
        <time>2014-05-18T13:53:32Z</time>
      </trkpt>
      <trkpt lat="43.91727" lon="5.23528">
        <ele>252.854</ele>
        <time>2014-05-18T13:53:49Z</time>
      </trkpt>
      <trkpt lat="43.91722" lon="5.23508">
        <ele>252.342</ele>
        <time>2014-05-18T13:53:57Z</time>
      </trkpt>
      <trkpt lat="43.91719" lon="5.23495">
        <ele>252.195</ele>
        <time>2014-05-18T13:54:07Z</time>
      </trkpt>
      <trkpt lat="43.91718" lon="5.23473">
        <ele>252.035</ele>
        <time>2014-05-18T13:54:21Z</time>
      </trkpt>
      <trkpt lat="43.91714" lon="5.23457">
        <ele>251.597</ele>
        <time>2014-05-18T13:54:29Z</time>
      </trkpt>
      <trkpt lat="43.91715" lon="5.23433">
        <ele>252.164</ele>
        <time>2014-05-18T13:54:42Z</time>
      </trkpt>
      <trkpt lat="43.91709" lon="5.23407">
        <ele>251.79</ele>
        <time>2014-05-18T13:55:00Z</time>
      </trkpt>
      <trkpt lat="43.91696" lon="5.23376">
        <ele>251.991</ele>
        <time>2014-05-18T13:55:17Z</time>
      </trkpt>
      <trkpt lat="43.91695" lon="5.23363">
        <ele>251.546</ele>
        <time>2014-05-18T13:55:28Z</time>
      </trkpt>
      <trkpt lat="43.91692" lon="5.23338">
        <ele>252.947</ele>
        <time>2014-05-18T13:55:49Z</time>
      </trkpt>
      <trkpt lat="43.91681" lon="5.23313">
        <ele>255.504</ele>
        <time>2014-05-18T13:56:05Z</time>
      </trkpt>
      <trkpt lat="43.91677" lon="5.23299">
        <ele>256.107</ele>
        <time>2014-05-18T13:56:12Z</time>
      </trkpt>
      <trkpt lat="43.91671" lon="5.23289">
        <ele>257.658</ele>
        <time>2014-05-18T13:56:26Z</time>
      </trkpt>
      <trkpt lat="43.91667" lon="5.23276">
        <ele>258.914</ele>
        <time>2014-05-18T13:56:34Z</time>
      </trkpt>
      <trkpt lat="43.91662" lon="5.23255">
        <ele>259.961</ele>
        <time>2014-05-18T13:56:50Z</time>
      </trkpt>
      <trkpt lat="43.91658" lon="5.23228">
        <ele>260.241</ele>
        <time>2014-05-18T13:57:06Z</time>
      </trkpt>
      <trkpt lat="43.91654" lon="5.23207">
        <ele>260.112</ele>
        <time>2014-05-18T13:57:18Z</time>
      </trkpt>
      <trkpt lat="43.91652" lon="5.23191">
        <ele>260.816</ele>
        <time>2014-05-18T13:57:29Z</time>
      </trkpt>
      <trkpt lat="43.91651" lon="5.23163">
        <ele>262.007</ele>
        <time>2014-05-18T13:57:43Z</time>
      </trkpt>
      <trkpt lat="43.91653" lon="5.23149">
        <ele>263.179</ele>
        <time>2014-05-18T13:57:52Z</time>
      </trkpt>
      <trkpt lat="43.91655" lon="5.23132">
        <ele>265.805</ele>
        <time>2014-05-18T13:58:03Z</time>
      </trkpt>
      <trkpt lat="43.91663" lon="5.23112">
        <ele>266.523</ele>
        <time>2014-05-18T13:58:16Z</time>
      </trkpt>
      <trkpt lat="43.91669" lon="5.23091">
        <ele>266.051</ele>
        <time>2014-05-18T13:58:29Z</time>
      </trkpt>
      <trkpt lat="43.91668" lon="5.23056">
        <ele>265.439</ele>
        <time>2014-05-18T13:58:47Z</time>
      </trkpt>
      <trkpt lat="43.91668" lon="5.23027">
        <ele>264.259</ele>
        <time>2014-05-18T13:59:04Z</time>
      </trkpt>
      <trkpt lat="43.91663" lon="5.22996">
        <ele>263.091</ele>
        <time>2014-05-18T13:59:21Z</time>
      </trkpt>
      <trkpt lat="43.91661" lon="5.22969">
        <ele>261.144</ele>
        <time>2014-05-18T13:59:34Z</time>
      </trkpt>
      <trkpt lat="43.91665" lon="5.22949">
        <ele>260.497</ele>
        <time>2014-05-18T13:59:45Z</time>
      </trkpt>
      <trkpt lat="43.91667" lon="5.22935">
        <ele>261.036</ele>
        <time>2014-05-18T13:59:53Z</time>
      </trkpt>
      <trkpt lat="43.91666" lon="5.2293">
        <ele>261.684</ele>
        <time>2014-05-18T14:00:06Z</time>
      </trkpt>
      <trkpt lat="43.91662" lon="5.22908">
        <ele>262.683</ele>
        <time>2014-05-18T14:00:24Z</time>
      </trkpt>
      <trkpt lat="43.91655" lon="5.22893">
        <ele>263.771</ele>
        <time>2014-05-18T14:00:38Z</time>
      </trkpt>
      <trkpt lat="43.91634" lon="5.22894">
        <ele>263.212</ele>
        <time>2014-05-18T14:00:54Z</time>
      </trkpt>
      <trkpt lat="43.91608" lon="5.22895">
        <ele>262.33</ele>
        <time>2014-05-18T14:01:13Z</time>
      </trkpt>
      <trkpt lat="43.91603" lon="5.22886">
        <ele>259.82</ele>
        <time>2014-05-18T14:01:27Z</time>
      </trkpt>
      <trkpt lat="43.91588" lon="5.22859">
        <ele>256.885</ele>
        <time>2014-05-18T14:01:55Z</time>
      </trkpt>
      <trkpt lat="43.91588" lon="5.22859">
        <ele>256.885</ele>
        <time>2014-05-18T14:02:02Z</time>
      </trkpt>
      <trkpt lat="43.91588" lon="5.22859">
        <ele>256.885</ele>
        <time>2014-05-18T14:02:03Z</time>
      </trkpt>
      <trkpt lat="43.91567" lon="5.22842">
        <ele>257.541</ele>
        <time>2014-05-18T14:02:32Z</time>
      </trkpt>
      <trkpt lat="43.91556" lon="5.22845">
        <ele>257.092</ele>
        <time>2014-05-18T14:02:40Z</time>
      </trkpt>
      <trkpt lat="43.91537" lon="5.22852">
        <ele>256.898</ele>
        <time>2014-05-18T14:02:55Z</time>
      </trkpt>
      <trkpt lat="43.9152" lon="5.22852">
        <ele>256.515</ele>
        <time>2014-05-18T14:03:08Z</time>
      </trkpt>
      <trkpt lat="43.91499" lon="5.22847">
        <ele>255.409</ele>
        <time>2014-05-18T14:03:26Z</time>
      </trkpt>
      <trkpt lat="43.91476" lon="5.22849">
        <ele>255.894</ele>
        <time>2014-05-18T14:03:39Z</time>
      </trkpt>
      <trkpt lat="43.91461" lon="5.22848">
        <ele>255.329</ele>
        <time>2014-05-18T14:03:54Z</time>
      </trkpt>
      <trkpt lat="43.91434" lon="5.22856">
        <ele>255.101</ele>
        <time>2014-05-18T14:04:13Z</time>
      </trkpt>
      <trkpt lat="43.91418" lon="5.22868">
        <ele>254.602</ele>
        <time>2014-05-18T14:04:26Z</time>
      </trkpt>
      <trkpt lat="43.91398" lon="5.2289">
        <ele>253.102</ele>
        <time>2014-05-18T14:04:45Z</time>
      </trkpt>
      <trkpt lat="43.91377" lon="5.22906">
        <ele>251.753</ele>
        <time>2014-05-18T14:05:03Z</time>
      </trkpt>
      <trkpt lat="43.9136" lon="5.22918">
        <ele>251.366</ele>
        <time>2014-05-18T14:05:16Z</time>
      </trkpt>
      <trkpt lat="43.91351" lon="5.22927">
        <ele>251.536</ele>
        <time>2014-05-18T14:05:24Z</time>
      </trkpt>
      <trkpt lat="43.91332" lon="5.22935">
        <ele>251.543</ele>
        <time>2014-05-18T14:05:38Z</time>
      </trkpt>
      <trkpt lat="43.91316" lon="5.22945">
        <ele>251.077</ele>
        <time>2014-05-18T14:05:53Z</time>
      </trkpt>
      <trkpt lat="43.91293" lon="5.22951">
        <ele>250.223</ele>
        <time>2014-05-18T14:06:11Z</time>
      </trkpt>
      <trkpt lat="43.9127" lon="5.22957">
        <ele>249.006</ele>
        <time>2014-05-18T14:06:30Z</time>
      </trkpt>
      <trkpt lat="43.91253" lon="5.22962">
        <ele>248.859</ele>
        <time>2014-05-18T14:06:40Z</time>
      </trkpt>
      <trkpt lat="43.91236" lon="5.22975">
        <ele>248.921</ele>
        <time>2014-05-18T14:06:55Z</time>
      </trkpt>
      <trkpt lat="43.91221" lon="5.2299">
        <ele>247.993</ele>
        <time>2014-05-18T14:07:10Z</time>
      </trkpt>
      <trkpt lat="43.91202" lon="5.22991">
        <ele>246.492</ele>
        <time>2014-05-18T14:07:25Z</time>
      </trkpt>
      <trkpt lat="43.91185" lon="5.22987">
        <ele>246.76</ele>
        <time>2014-05-18T14:07:37Z</time>
      </trkpt>
      <trkpt lat="43.91177" lon="5.22986">
        <ele>247.008</ele>
        <time>2014-05-18T14:07:42Z</time>
      </trkpt>
      <trkpt lat="43.91171" lon="5.22987">
        <ele>247.19</ele>
        <time>2014-05-18T14:07:59Z</time>
      </trkpt>
      <trkpt lat="43.91152" lon="5.22987">
        <ele>246.44</ele>
        <time>2014-05-18T14:08:16Z</time>
      </trkpt>
      <trkpt lat="43.9113" lon="5.22992">
        <ele>246.17</ele>
        <time>2014-05-18T14:08:32Z</time>
      </trkpt>
      <trkpt lat="43.91101" lon="5.22991">
        <ele>245.943</ele>
        <time>2014-05-18T14:08:50Z</time>
      </trkpt>
      <trkpt lat="43.91086" lon="5.22997">
        <ele>244.444</ele>
        <time>2014-05-18T14:09:08Z</time>
      </trkpt>
      <trkpt lat="43.91086" lon="5.22997">
        <ele>193.9</ele>
        <time>2014-05-18T14:09:09Z</time>
      </trkpt>
      <trkpt lat="43.91086" lon="5.22997">
        <ele>193.9</ele>
        <time>2014-05-18T14:11:21Z</time>
      </trkpt>
    </trkseg>
  </trk>
</gpx>